Observation data for Dozier on 05/24/2019      Previous  Date       Current Mesonet Observations  Soil Data  Daily Summary Page  Observations in Plain Language
KDO1 240500Z 14009KT 23/21 A2993 RMK A01 T02300210  RH  089%=      5-min Rain = 0
KDO1 240501Z 14009KT 23/21 A2992 RMK A01 T02300210  RH  089%=      5-min Rain = 0
KDO1 240502Z 14009KT 23/21 A2992 RMK A01 T02300210  RH  089%=      5-min Rain = 0
KDO1 240503Z 14007KT 23/21 A2992 RMK A01 T02300210  RH  089%=      5-min Rain = 0
KDO1 240504Z 14009KT 23/21 A2992 RMK A01 T02300211  RH  089%=      5-min Rain = 0
KDO1 240505Z 14009KT 23/21 A2992 RMK A01 T02290210  RH  089%=      5-min Rain = 0
KDO1 240506Z 14008KT 23/21 A2992 RMK A01 T02290211  RH  089%=      5-min Rain = 0
KDO1 240507Z 14008KT 23/21 A2992 RMK A01 T02290211  RH  089%=      5-min Rain = 0
KDO1 240508Z 14009KT 23/21 A2992 RMK A01 T02290211  RH  090%=      5-min Rain = 0
KDO1 240509Z 14009KT 23/21 A2992 RMK A01 T02290211  RH  090%=      5-min Rain = 0
KDO1 240510Z 14008KT 23/21 A2992 RMK A01 T02280211  RH  090%=      5-min Rain = 0
KDO1 240511Z 14008KT 23/21 A2992 RMK A01 T02280211  RH  090%=      5-min Rain = 0
KDO1 240512Z 14008KT 23/21 A2992 RMK A01 T02280211  RH  090%=      5-min Rain = 0
KDO1 240513Z 13008KT 23/21 A2992 RMK A01 T02280211  RH  090%=      5-min Rain = 0
KDO1 240514Z 13008KT 23/21 A2991 RMK A01 T02280212  RH  090%=      5-min Rain = 0
KDO1 240515Z 14008KT 23/21 A2991 RMK A01 T02280212  RH  091%=      5-min Rain = 0
KDO1 240516Z 13008KT 23/21 A2991 RMK A01 T02280212  RH  091%=      5-min Rain = 0
KDO1 240517Z 13008KT 23/21 A2991 RMK A01 T02280212  RH  091%=      5-min Rain = 0
KDO1 240518Z 13008KT 23/21 A2991 RMK A01 T02270212  RH  091%=      5-min Rain = 0
KDO1 240519Z 13008KT 23/21 A2991 RMK A01 T02270212  RH  091%=      5-min Rain = 0
KDO1 240520Z 13007KT 23/21 A2991 RMK A01 T02280212  RH  091%=      5-min Rain = 0
KDO1 240521Z 13007KT 23/21 A2991 RMK A01 T02270212  RH  091%=      5-min Rain = 0
KDO1 240522Z 13007KT 23/21 A2991 RMK A01 T02270212  RH  091%=      5-min Rain = 0
KDO1 240523Z 12007KT 23/21 A299 RMK A01 T02270212  RH  091%=      5-min Rain = 0
KDO1 240524Z 12007KT 23/21 A299 RMK A01 T02270212  RH  091%=      5-min Rain = 0
KDO1 240525Z 11008KT 23/21 A299 RMK A01 T02270212  RH  091%=      5-min Rain = 0
KDO1 240526Z 12008KT 23/21 A299 RMK A01 T02270212  RH  091%=      5-min Rain = 0
KDO1 240527Z 11006KT 23/21 A299 RMK A01 T02270212  RH  091%=      5-min Rain = 0
KDO1 240528Z 11006KT 23/21 A299 RMK A01 T02270212  RH  091%=      5-min Rain = 0
KDO1 240529Z 12006KT 23/21 A299 RMK A01 T02270212  RH  091%=      5-min Rain = 0
KDO1 240530Z 13007KT 23/21 A299 RMK A01 T02260212  RH  091%=      5-min Rain = 0
KDO1 240531Z 13007KT 23/21 A299 RMK A01 T02260212  RH  092%=      5-min Rain = 0
KDO1 240532Z 13006KT 23/21 A2991 RMK A01 T02270212  RH  092%=      5-min Rain = 0
KDO1 240533Z 13005KT 23/21 A2991 RMK A01 T02260212  RH  092%=      5-min Rain = 0
KDO1 240534Z 15006KT 23/21 A2991 RMK A01 T02260212  RH  092%=      5-min Rain = 0
KDO1 240535Z 15006KT 23/21 A2991 RMK A01 T02260212  RH  092%=      5-min Rain = 0
KDO1 240536Z 15006KT 23/21 A2992 RMK A01 T02270213  RH  092%=      5-min Rain = 0
KDO1 240537Z 15006KT 23/21 A2992 RMK A01 T02260212  RH  092%=      5-min Rain = 0
KDO1 240538Z 15008KT 23/21 A2992 RMK A01 T02260213  RH  092%=      5-min Rain = 0
KDO1 240539Z 15009KT 23/21 A2992 RMK A01 T02260212  RH  092%=      5-min Rain = 0
KDO1 240540Z 15008KT 23/21 A2992 RMK A01 T02260212  RH  092%=      5-min Rain = 0
KDO1 240541Z 15008KT 23/21 A2992 RMK A01 T02260212  RH  092%=      5-min Rain = 0
KDO1 240542Z 15009KT 23/21 A2992 RMK A01 T02260212  RH  092%=      5-min Rain = 0
KDO1 240543Z 15010KT 23/21 A2992 RMK A01 T02270212  RH  092%=      5-min Rain = 0
KDO1 240544Z 15010KT 23/21 A2992 RMK A01 T02270212  RH  091%=      5-min Rain = 0
KDO1 240545Z 14010KT 23/21 A2992 RMK A01 T02270212  RH  091%=      5-min Rain = 0
KDO1 240546Z 14009KT 23/21 A2992 RMK A01 T02270211  RH  091%=      5-min Rain = 0
KDO1 240547Z 14009KT 23/21 A2992 RMK A01 T02270211  RH  091%=      5-min Rain = 0
KDO1 240548Z 13009KT 23/21 A2992 RMK A01 T02270211  RH  091%=      5-min Rain = 0
KDO1 240549Z 14008KT 23/21 A2992 RMK A01 T02270211  RH  091%=      5-min Rain = 0
KDO1 240550Z 14008KT 23/21 A2992 RMK A01 T02270211  RH  091%=      5-min Rain = 0
KDO1 240551Z 14008KT 23/21 A2991 RMK A01 T02270212  RH  091%=      5-min Rain = 0
KDO1 240552Z 13007KT 23/21 A2991 RMK A01 T02270212  RH  091%=      5-min Rain = 0
KDO1 240553Z 14007KT 23/21 A2991 RMK A01 T02270212  RH  091%=      5-min Rain = 0
KDO1 240554Z 14006KT 23/21 A2992 RMK A01 T02270212  RH  091%=      5-min Rain = 0
KDO1 240555Z 14006KT 23/21 A2992 RMK A01 T02270212  RH  091%=      5-min Rain = 0
KDO1 240556Z 14005KT 23/21 A2992 RMK A01 T02260212  RH  091%=      5-min Rain = 0
KDO1 240557Z 15006KT 23/21 A2992 RMK A01 T02260212  RH  092%=      5-min Rain = 0
KDO1 240558Z 15005KT 23/21 A2992 RMK A01 T02260212  RH  092%=      5-min Rain = 0
KDO1 240559Z 15005KT 23/21 A2992 RMK A01 T02260212  RH  092%=      5-min Rain = 0
KDO1 240600Z 15005KT 23/21 A2992 RMK A01 T02260212  RH  092%=      5-min Rain = 0
KDO1 240601Z 15004KT 23/21 A2992 RMK A01 T02260212  RH  092%=      5-min Rain = 0
KDO1 240602Z 16004KT 23/21 A2992 RMK A01 T02260212  RH  092%=      5-min Rain = 0
KDO1 240603Z 16004KT 23/21 A2992 RMK A01 T02260212  RH  092%=      5-min Rain = 0
KDO1 240604Z 17004KT 23/21 A2992 RMK A01 T02260212  RH  092%=      5-min Rain = 0
KDO1 240605Z 17003KT 23/21 A2992 RMK A01 T02260212  RH  092%=      5-min Rain = 0
KDO1 240606Z 17003KT 23/21 A2992 RMK A01 T02260213  RH  092%=      5-min Rain = 0
KDO1 240607Z 18003KT 23/21 A2992 RMK A01 T02250213  RH  092%=      5-min Rain = 0
KDO1 240608Z 17003KT 23/21 A2992 RMK A01 T02250213  RH  093%=      5-min Rain = 0
KDO1 240609Z 17003KT 23/21 A2991 RMK A01 T02250213  RH  093%=      5-min Rain = 0
KDO1 240610Z 17003KT 22/21 A2992 RMK A01 T02240213  RH  093%=      5-min Rain = 0
KDO1 240611Z 18003KT 23/21 A2992 RMK A01 T02250213  RH  093%=      5-min Rain = 0
KDO1 240612Z 21002KT 22/21 A2992 RMK A01 T02240213  RH  093%=      5-min Rain = 0
KDO1 240613Z 22003KT 22/21 A2992 RMK A01 T02240214  RH  094%=      5-min Rain = 0
KDO1 240614Z 20004KT 22/21 A2992 RMK A01 T02240214  RH  094%=      5-min Rain = 0
KDO1 240615Z 21003KT 22/21 A2992 RMK A01 T02240213  RH  094%=      5-min Rain = 0
KDO1 240616Z 20004KT 22/21 A2992 RMK A01 T02240213  RH  094%=      5-min Rain = 0
KDO1 240617Z 21003KT 22/21 A2992 RMK A01 T02240213  RH  094%=      5-min Rain = 0
KDO1 240618Z 22001KT 22/21 A2992 RMK A01 T02230213  RH  094%=      5-min Rain = 0
KDO1 240619Z 24002KT 22/21 A2992 RMK A01 T02240214  RH  094%=      5-min Rain = 0
KDO1 240620Z 24001KT 22/21 A2993 RMK A01 T02240214  RH  094%=      5-min Rain = 0
KDO1 240621Z 25002KT 22/21 A2993 RMK A01 T02230214  RH  095%=      5-min Rain = 0
KDO1 240622Z 25002KT 22/21 A2993 RMK A01 T02230214  RH  095%=      5-min Rain = 0
KDO1 240623Z 23002KT 22/21 A2993 RMK A01 T02230214  RH  095%=      5-min Rain = 0
KDO1 240624Z 25002KT 22/22 A2993 RMK A01 T02230215  RH  095%=      5-min Rain = 0
KDO1 240625Z 25002KT 22/21 A2993 RMK A01 T02230214  RH  095%=      5-min Rain = 0
KDO1 240626Z 26003KT 22/22 A2993 RMK A01 T02230215  RH  095%=      5-min Rain = 0
KDO1 240627Z 26001KT 22/21 A2993 RMK A01 T02230214  RH  095%=      5-min Rain = 0
KDO1 240628Z 21001KT 22/21 A2993 RMK A01 T02230214  RH  095%=      5-min Rain = 0
KDO1 240629Z 19001KT 22/21 A2993 RMK A01 T02230214  RH  095%=      5-min Rain = 0
KDO1 240630Z 19001KT 22/21 A2993 RMK A01 T02230214  RH  095%=      5-min Rain = 0
KDO1 240631Z 19001KT 22/21 A2993 RMK A01 T02230214  RH  095%=      5-min Rain = 0
KDO1 240632Z 20002KT 22/21 A2993 RMK A01 T02230214  RH  095%=      5-min Rain = 0
KDO1 240633Z 23003KT 22/21 A2993 RMK A01 T02230214  RH  095%=      5-min Rain = 0
KDO1 240634Z 24006KT 22/22 A2994 RMK A01 T02230215  RH  095%=      5-min Rain = 0
KDO1 240635Z 25011KT 22/22 A2995 RMK A01 T02230215  RH  096%=      5-min Rain = 0
KDO1 240636Z 27014KT 22/22 A2996 RMK A01 T02220216  RH  096%=      5-min Rain = 0
KDO1 240637Z 26021G27KT 22/20 A2996 RMK A01 T02210201  RH  088%=      5-min Rain = 0
KDO1 240638Z 27021G29KT 22/17 A2997 RMK A01 T02170168  RH  074%=      5-min Rain = 0
KDO1 240639Z 27022G28KT 21/16 A2996 RMK A01 T02100158  RH  072%=      5-min Rain = 0
KDO1 240640Z 27018G25KT 21/15 A2996 RMK A01 T02060153  RH  072%=      5-min Rain = 0
KDO1 240641Z 29016G23KT 20/15 A2996 RMK A01 T02030154  RH  073%=      5-min Rain = 0
KDO1 240642Z 29018KT 20/15 A2996 RMK A01 T02010153  RH  074%=      5-min Rain = 0
KDO1 240643Z 29016KT 20/15 A2997 RMK A01 T01990152  RH  075%=      5-min Rain = 0
KDO1 240644Z 29016G21KT 20/15 A2997 RMK A01 T01970152  RH  075%=      5-min Rain = 0
KDO1 240645Z 30013G19KT 20/15 A2997 RMK A01 T01950151  RH  075%=      5-min Rain = 0
KDO1 240646Z 29015G20KT 19/15 A2997 RMK A01 T01930149  RH  076%=      5-min Rain = 0
KDO1 240647Z 30016KT 19/15 A2997 RMK A01 T01910150  RH  077%=      5-min Rain = 0
KDO1 240648Z 31014KT 19/15 A2997 RMK A01 T01890153  RH  080%=      5-min Rain = 0
KDO1 240649Z 30019G26KT 19/16 A2996 RMK A01 T01860156  RH  083%=      5-min Rain = 0
KDO1 240650Z 31016G21KT 18/16 A2997 RMK A01 T01840158  RH  085%=      5-min Rain = 0
KDO1 240651Z 31015KT 18/16 A2997 RMK A01 T01820158  RH  086%=      5-min Rain = 0
KDO1 240652Z 31016KT 18/16 A2997 RMK A01 T01810159  RH  087%=      5-min Rain = 0
KDO1 240653Z 32015KT 18/16 A2996 RMK A01 T01800160  RH  088%=      5-min Rain = 0
KDO1 240654Z 31014KT 18/16 A2996 RMK A01 T01780162  RH  090%=      5-min Rain = 0
KDO1 240655Z 31013KT 18/16 A2996 RMK A01 T01760163  RH  092%=      5-min Rain = 0
KDO1 240656Z 31013G18KT 17/16 A2996 RMK A01 T01740163  RH  094%=      5-min Rain = 0
KDO1 240657Z 32015KT 17/16 A2996 RMK A01 T01720164  RH  095%=      5-min Rain = 0
KDO1 240658Z 32015KT 17/16 A2997 RMK A01 T01710164  RH  096%=      5-min Rain = 0
KDO1 240659Z 33015KT 17/16 A2996 RMK A01 T01700164  RH  096%=      5-min Rain = 0
KDO1 240700Z 33013KT 17/16 A2996 RMK A01 T01690164  RH  097%=      5-min Rain = 0.02
KDO1 240701Z 34012KT 17/17 A2996 RMK A01 T01680165  RH  098%=      5-min Rain = 0
KDO1 240702Z 34014KT 17/17 A2995 RMK A01 T01680166  RH  099%=      5-min Rain = 0
KDO1 240703Z 33015KT 17/17 A2995 RMK A01 T01670166  RH  099%=      5-min Rain = 0
KDO1 240704Z 34012KT 17/17 A2995 RMK A01 T01670167  RH  100%=      5-min Rain = 0.01
KDO1 240705Z 33012KT 17/17 A2995 RMK A01 T01670167  RH  100%=      5-min Rain = 0
KDO1 240706Z 34010KT 17/17 A2995 RMK A01 T01660166  RH  100%=      5-min Rain = 0
KDO1 240707Z 34009G14KT 17/17 A2995 RMK A01 T01660166  RH  100%=      5-min Rain = 0.01
KDO1 240708Z 34009KT 17/17 A2995 RMK A01 T01660166  RH  100%=      5-min Rain = 0
KDO1 240709Z 34008KT 17/17 A2996 RMK A01 T01660166  RH  100%=      5-min Rain = 0.01
KDO1 240710Z 33009KT 17/17 A2996 RMK A01 T01670167  RH  100%=      5-min Rain = 0
KDO1 240711Z 34008KT 17/17 A2996 RMK A01 T01670167  RH  100%=      5-min Rain = 0
KDO1 240712Z 32009KT 17/17 A2997 RMK A01 T01670167  RH  100%=      5-min Rain = 0.01
KDO1 240713Z 31006KT 17/17 A2997 RMK A01 T01680168  RH  100%=      5-min Rain = 0.02
KDO1 240714Z 30006KT 17/17 A2998 RMK A01 T01680168  RH  100%=      5-min Rain = 0.01
KDO1 240715Z 30008KT 17/17 A2999 RMK A01 T01680168  RH  100%=      5-min Rain = 0
KDO1 240716Z 30009KT 17/17 A2999 RMK A01 T01670167  RH  100%=      5-min Rain = 0.01
KDO1 240717Z 30012KT 17/17 A2998 RMK A01 T01660167  RH  100%=      5-min Rain = 0.03
KDO1 240718Z 30010KT 17/17 A2998 RMK A01 T01660166  RH  100%=      5-min Rain = 0.01
KDO1 240719Z 30008KT 17/17 A2998 RMK A01 T01660166  RH  100%=      5-min Rain = 0
KDO1 240720Z 30008KT 17/17 A2998 RMK A01 T01650165  RH  100%=      5-min Rain = 0
KDO1 240721Z 30007KT 17/17 A2999 RMK A01 T01650165  RH  100%=      5-min Rain = 0.01
KDO1 240722Z 28007KT 17/17 A30 RMK A01 T01650165  RH  100%=      5-min Rain = 0.01
KDO1 240723Z 27009KT 17/17 A30 RMK A01 T01660166  RH  100%=      5-min Rain = 0.02
KDO1 240724Z 28006KT 17/17 A30 RMK A01 T01670167  RH  100%=      5-min Rain = 0.02
KDO1 240725Z 27005KT 17/17 A30 RMK A01 T01670167  RH  100%=      5-min Rain = 0.02
KDO1 240726Z 27007KT 17/17 A30 RMK A01 T01670167  RH  100%=      5-min Rain = 0.01
KDO1 240727Z 26008KT 17/17 A2999 RMK A01 T01670167  RH  100%=      5-min Rain = 0.01
KDO1 240728Z 26008KT 17/17 A2999 RMK A01 T01670167  RH  100%=      5-min Rain = 0.02
KDO1 240729Z 26008KT 17/17 A2998 RMK A01 T01660166  RH  100%=      5-min Rain = 0.02
KDO1 240730Z 27007KT 17/17 A2998 RMK A01 T01660166  RH  100%=      5-min Rain = 0.02
KDO1 240731Z 26005KT 17/17 A2998 RMK A01 T01650165  RH  100%=      5-min Rain = 0.02
KDO1 240732Z 27003KT 16/17 A2998 RMK A01 T01640165  RH  100%=      5-min Rain = 0.03
KDO1 240733Z 25003KT 16/16 A2997 RMK A01 T01640164  RH  100%=      5-min Rain = 0.01
KDO1 240734Z 24001KT 16/16 A2997 RMK A01 T01640164  RH  100%=      5-min Rain = 0.01
KDO1 240735Z 20002KT 16/16 A2997 RMK A01 T01640164  RH  100%=      5-min Rain = 0
KDO1 240736Z 15002KT 16/16 A2997 RMK A01 T01640164  RH  100%=      5-min Rain = 0
KDO1 240737Z 15002KT 16/16 A2997 RMK A01 T01640164  RH  100%=      5-min Rain = 0
KDO1 240738Z 13002KT 16/16 A2997 RMK A01 T01630163  RH  100%=      5-min Rain = 0
KDO1 240739Z 10002KT 16/16 A2997 RMK A01 T01630164  RH  100%=      5-min Rain = 0
KDO1 240740Z 10002KT 16/16 A2997 RMK A01 T01640164  RH  100%=      5-min Rain = 0
KDO1 240741Z 10002KT 16/16 A2997 RMK A01 T01640164  RH  100%=      5-min Rain = 0.01
KDO1 240742Z 08003KT 16/16 A2996 RMK A01 T01640164  RH  100%=      5-min Rain = 0
KDO1 240743Z 08002KT 16/16 A2997 RMK A01 T01640164  RH  100%=      5-min Rain = 0
KDO1 240744Z 07002KT 16/16 A2997 RMK A01 T01630163  RH  100%=      5-min Rain = 0
KDO1 240745Z 07002KT 16/16 A2997 RMK A01 T01630163  RH  100%=      5-min Rain = 0
KDO1 240746Z 07001KT 16/16 A2997 RMK A01 T01630163  RH  100%=      5-min Rain = 0
KDO1 240747Z 03001KT 16/16 A2997 RMK A01 T01630163  RH  100%=      5-min Rain = 0
KDO1 240748Z 35001KT 16/16 A2997 RMK A01 T01630163  RH  100%=      5-min Rain = 0
KDO1 240749Z 33002KT 16/16 A2997 RMK A01 T01630163  RH  100%=      5-min Rain = 0
KDO1 240750Z 30002KT 16/16 A2997 RMK A01 T01630163  RH  100%=      5-min Rain = 0
KDO1 240751Z 30003KT 16/16 A2997 RMK A01 T01630163  RH  100%=      5-min Rain = 0
KDO1 240752Z 31004KT 16/16 A2997 RMK A01 T01630163  RH  100%=      5-min Rain = 0
KDO1 240753Z 30006KT 16/16 A2997 RMK A01 T01640164  RH  100%=      5-min Rain = 0
KDO1 240754Z 29005KT 16/16 A2997 RMK A01 T01640164  RH  100%=      5-min Rain = 0
KDO1 240755Z 26004KT 17/17 A2997 RMK A01 T01650165  RH  100%=      5-min Rain = 0
KDO1 240756Z 26004KT 17/17 A2997 RMK A01 T01650165  RH  100%=      5-min Rain = 0
KDO1 240757Z 24004KT 17/17 A2998 RMK A01 T01660166  RH  100%=      5-min Rain = 0
KDO1 240758Z 23006KT 17/17 A2999 RMK A01 T01670167  RH  100%=      5-min Rain = 0
KDO1 240759Z 22007KT 17/17 A2999 RMK A01 T01680168  RH  100%=      5-min Rain = 0
KDO1 240800Z 22009KT 17/17 A30 RMK A01 T01680168  RH  100%=      5-min Rain = 0
KDO1 240801Z 22010KT 17/17 A30 RMK A01 T01690169  RH  100%=      5-min Rain = 0.01
KDO1 240802Z 22011KT 17/17 A3001 RMK A01 T01690169  RH  100%=      5-min Rain = 0.01
KDO1 240803Z 23011KT 17/17 A3001 RMK A01 T01700170  RH  100%=      5-min Rain = 0.03
KDO1 240804Z 23012KT 17/17 A30 RMK A01 T01690169  RH  100%=      5-min Rain = 0.05
KDO1 240805Z 24010KT 17/17 A2999 RMK A01 T01690169  RH  100%=      5-min Rain = 0.05
KDO1 240806Z 26007KT 17/17 A2998 RMK A01 T01690169  RH  100%=      5-min Rain = 0.03
KDO1 240807Z 27006KT 17/17 A2997 RMK A01 T01680168  RH  100%=      5-min Rain = 0.05
KDO1 240808Z 27003KT 17/17 A2996 RMK A01 T01680168  RH  100%=      5-min Rain = 0.02
KDO1 240809Z 28001KT 17/17 A2995 RMK A01 T01680168  RH  100%=      5-min Rain = 0.01
KDO1 240810Z 01000KT 17/17 A2994 RMK A01 T01680168  RH  100%=      5-min Rain = 0.01
KDO1 240811Z 32001KT 17/17 A2994 RMK A01 T01680168  RH  100%=      5-min Rain = 0.01
KDO1 240812Z 33000KT 17/17 A2994 RMK A01 T01680168  RH  100%=      5-min Rain = 0
KDO1 240813Z 13003KT 17/17 A2994 RMK A01 T01680168  RH  100%=      5-min Rain = 0.01
KDO1 240814Z 13006KT 17/17 A2994 RMK A01 T01680168  RH  100%=      5-min Rain = 0
KDO1 240815Z 12007KT 17/17 A2994 RMK A01 T01680168  RH  100%=      5-min Rain = 0
KDO1 240816Z 12008KT 17/17 A2994 RMK A01 T01680168  RH  100%=      5-min Rain = 0
KDO1 240817Z 12009KT 17/17 A2994 RMK A01 T01670167  RH  100%=      5-min Rain = 0
KDO1 240818Z 12010KT 17/17 A2994 RMK A01 T01670167  RH  100%=      5-min Rain = 0
KDO1 240819Z 12010KT 17/17 A2995 RMK A01 T01670167  RH  100%=      5-min Rain = 0
KDO1 240820Z 11010KT 17/17 A2995 RMK A01 T01670167  RH  100%=      5-min Rain = 0
KDO1 240821Z 11009KT 17/17 A2995 RMK A01 T01660167  RH  100%=      5-min Rain = 0
KDO1 240822Z 10008KT 17/17 A2994 RMK A01 T01660166  RH  100%=      5-min Rain = 0
KDO1 240823Z 11008KT 17/17 A2994 RMK A01 T01660166  RH  100%=      5-min Rain = 0
KDO1 240824Z 11007KT 17/17 A2994 RMK A01 T01660166  RH  100%=      5-min Rain = 0
KDO1 240825Z 11007KT 17/17 A2994 RMK A01 T01660166  RH  100%=      5-min Rain = 0
KDO1 240826Z 11006KT 17/17 A2994 RMK A01 T01660166  RH  100%=      5-min Rain = 0
KDO1 240827Z 11007KT 17/17 A2993 RMK A01 T01660166  RH  100%=      5-min Rain = 0
KDO1 240828Z 10006KT 17/17 A2993 RMK A01 T01660166  RH  100%=      5-min Rain = 0
KDO1 240829Z 10006KT 17/17 A2993 RMK A01 T01660166  RH  100%=      5-min Rain = 0
KDO1 240830Z 09005KT 17/17 A2993 RMK A01 T01660166  RH  100%=      5-min Rain = 0
KDO1 240831Z 09005KT 17/17 A2993 RMK A01 T01660166  RH  100%=      5-min Rain = 0
KDO1 240832Z 09005KT 17/17 A2993 RMK A01 T01660166  RH  100%=      5-min Rain = 0.01
KDO1 240833Z 11005KT 17/17 A2993 RMK A01 T01660166  RH  100%=      5-min Rain = 0
KDO1 240834Z 12006KT 17/17 A2993 RMK A01 T01660166  RH  100%=      5-min Rain = 0
KDO1 240835Z 12007KT 17/17 A2994 RMK A01 T01660166  RH  100%=      5-min Rain = 0
KDO1 240836Z 12006KT 17/17 A2994 RMK A01 T01660166  RH  100%=      5-min Rain = 0
KDO1 240837Z 12006KT 17/17 A2994 RMK A01 T01660166  RH  100%=      5-min Rain = 0
KDO1 240838Z 12006KT 17/17 A2994 RMK A01 T01660166  RH  100%=      5-min Rain = 0
KDO1 240839Z 12005KT 17/17 A2994 RMK A01 T01660166  RH  100%=      5-min Rain = 0
KDO1 240840Z 12005KT 17/17 A2994 RMK A01 T01660166  RH  100%=      5-min Rain = 0
KDO1 240841Z 11007KT 17/17 A2993 RMK A01 T01660166  RH  100%=      5-min Rain = 0
KDO1 240842Z 11008KT 17/17 A2993 RMK A01 T01660166  RH  100%=      5-min Rain = 0
KDO1 240843Z 10007KT 17/17 A2993 RMK A01 T01660166  RH  100%=      5-min Rain = 0
KDO1 240844Z 11007KT 17/17 A2993 RMK A01 T01660166  RH  100%=      5-min Rain = 0
KDO1 240845Z 10006KT 17/17 A2992 RMK A01 T01660166  RH  100%=      5-min Rain = 0
KDO1 240846Z 10005KT 17/17 A2992 RMK A01 T01670167  RH  100%=      5-min Rain = 0
KDO1 240847Z 10005KT 17/17 A2992 RMK A01 T01670167  RH  100%=      5-min Rain = 0
KDO1 240848Z 11004KT 17/17 A2992 RMK A01 T01670167  RH  100%=      5-min Rain = 0
KDO1 240849Z 10004KT 17/17 A2992 RMK A01 T01670167  RH  100%=      5-min Rain = 0
KDO1 240850Z 10004KT 17/17 A2992 RMK A01 T01670167  RH  100%=      5-min Rain = 0
KDO1 240851Z 11003KT 17/17 A2992 RMK A01 T01670167  RH  100%=      5-min Rain = 0
KDO1 240852Z 10002KT 17/17 A2992 RMK A01 T01670167  RH  100%=      5-min Rain = 0
KDO1 240853Z 11003KT 17/17 A2992 RMK A01 T01670167  RH  100%=      5-min Rain = 0
KDO1 240854Z 11004KT 17/17 A2992 RMK A01 T01670167  RH  100%=      5-min Rain = 0
KDO1 240855Z 11004KT 17/17 A2992 RMK A01 T01680168  RH  100%=      5-min Rain = 0
KDO1 240856Z 12006KT 17/17 A2992 RMK A01 T01680168  RH  100%=      5-min Rain = 0
KDO1 240857Z 12007KT 17/17 A2992 RMK A01 T01680168  RH  100%=      5-min Rain = 0
KDO1 240858Z 12008KT 17/17 A2992 RMK A01 T01680168  RH  100%=      5-min Rain = 0
KDO1 240859Z 12007KT 17/17 A2992 RMK A01 T01680168  RH  100%=      5-min Rain = 0
KDO1 240900Z 12008KT 17/17 A2992 RMK A01 T01680168  RH  100%=      5-min Rain = 0
KDO1 240901Z 13007KT 17/17 A2992 RMK A01 T01680168  RH  100%=      5-min Rain = 0
KDO1 240902Z 12005KT 17/17 A2992 RMK A01 T01680168  RH  100%=      5-min Rain = 0
KDO1 240903Z 12005KT 17/17 A2992 RMK A01 T01680168  RH  100%=      5-min Rain = 0
KDO1 240904Z 12005KT 17/17 A2992 RMK A01 T01680168  RH  100%=      5-min Rain = 0
KDO1 240905Z 11005KT 17/17 A2992 RMK A01 T01680168  RH  100%=      5-min Rain = 0
KDO1 240906Z 12006KT 17/17 A2992 RMK A01 T01690169  RH  100%=      5-min Rain = 0
KDO1 240907Z 12004KT 17/17 A2992 RMK A01 T01690169  RH  100%=      5-min Rain = 0
KDO1 240908Z 10005KT 17/17 A2991 RMK A01 T01690169  RH  100%=      5-min Rain = 0
KDO1 240909Z 10004KT 17/17 A2991 RMK A01 T01690169  RH  100%=      5-min Rain = 0
KDO1 240910Z 11003KT 17/17 A2991 RMK A01 T01690169  RH  100%=      5-min Rain = 0
KDO1 240911Z 11004KT 17/17 A2991 RMK A01 T01690169  RH  100%=      5-min Rain = 0
KDO1 240912Z 12004KT 17/17 A2991 RMK A01 T01690169  RH  100%=      5-min Rain = 0
KDO1 240913Z 13004KT 17/17 A2991 RMK A01 T01690169  RH  100%=      5-min Rain = 0
KDO1 240914Z 13004KT 17/17 A2992 RMK A01 T01690169  RH  100%=      5-min Rain = 0
KDO1 240915Z 13003KT 17/17 A2992 RMK A01 T01690169  RH  100%=      5-min Rain = 0
KDO1 240916Z 14003KT 17/17 A2992 RMK A01 T01690169  RH  100%=      5-min Rain = 0
KDO1 240917Z 14004KT 17/17 A2992 RMK A01 T01690169  RH  100%=      5-min Rain = 0
KDO1 240918Z 14002KT 17/17 A2992 RMK A01 T01690169  RH  100%=      5-min Rain = 0
KDO1 240919Z 13003KT 17/17 A2993 RMK A01 T01690169  RH  100%=      5-min Rain = 0
KDO1 240920Z 15002KT 17/17 A2993 RMK A01 T01690169  RH  100%=      5-min Rain = 0
KDO1 240921Z 19001KT 17/17 A2993 RMK A01 T01690169  RH  100%=      5-min Rain = 0
KDO1 240922Z 19002KT 17/17 A2993 RMK A01 T01690169  RH  100%=      5-min Rain = 0
KDO1 240923Z 20002KT 17/17 A2993 RMK A01 T01690169  RH  100%=      5-min Rain = 0
KDO1 240924Z 24002KT 17/17 A2993 RMK A01 T01690169  RH  100%=      5-min Rain = 0
KDO1 240925Z 24003KT 17/17 A2993 RMK A01 T01690169  RH  100%=      5-min Rain = 0
KDO1 240926Z 25001KT 17/17 A2993 RMK A01 T01690169  RH  100%=      5-min Rain = 0
KDO1 240927Z 23002KT 17/17 A2993 RMK A01 T01690170  RH  100%=      5-min Rain = 0
KDO1 240928Z 23002KT 17/17 A2993 RMK A01 T01700170  RH  100%=      5-min Rain = 0
KDO1 240929Z 24003KT 17/17 A2993 RMK A01 T01690169  RH  100%=      5-min Rain = 0
KDO1 240930Z 25003KT 17/17 A2993 RMK A01 T01690169  RH  100%=      5-min Rain = 0
KDO1 240931Z 26004KT 17/17 A2993 RMK A01 T01700170  RH  100%=      5-min Rain = 0
KDO1 240932Z 26004KT 17/17 A2993 RMK A01 T01690169  RH  100%=      5-min Rain = 0
KDO1 240933Z 27004KT 17/17 A2993 RMK A01 T01700170  RH  100%=      5-min Rain = 0.01
KDO1 240934Z 26004KT 17/17 A2994 RMK A01 T01700170  RH  100%=      5-min Rain = 0
KDO1 240935Z 26004KT 17/17 A2993 RMK A01 T01710171  RH  100%=      5-min Rain = 0
KDO1 240936Z 27002KT 17/17 A2992 RMK A01 T01710171  RH  100%=      5-min Rain = 0
KDO1 240937Z 29000KT 17/17 A2992 RMK A01 T01700171  RH  100%=      5-min Rain = 0
KDO1 240938Z 08000KT 17/17 A2992 RMK A01 T01700170  RH  100%=      5-min Rain = 0
KDO1 240939Z 07001KT 17/17 A2992 RMK A01 T01700171  RH  100%=      5-min Rain = 0
KDO1 240940Z 08001KT 17/17 A2992 RMK A01 T01710171  RH  100%=      5-min Rain = 0
KDO1 240941Z 29000KT 17/17 A2992 RMK A01 T01700170  RH  100%=      5-min Rain = 0
KDO1 240942Z 28001KT 17/17 A2992 RMK A01 T01700171  RH  100%=      5-min Rain = 0
KDO1 240943Z 28002KT 17/17 A2992 RMK A01 T01700171  RH  100%=      5-min Rain = 0
KDO1 240944Z 32002KT 17/17 A2992 RMK A01 T01700170  RH  100%=      5-min Rain = 0
KDO1 240945Z 00002KT 17/17 A2991 RMK A01 T01700170  RH  100%=      5-min Rain = 0
KDO1 240946Z 02003KT 17/17 A2991 RMK A01 T01700171  RH  100%=      5-min Rain = 0
KDO1 240947Z 04004KT 17/17 A2991 RMK A01 T01710171  RH  100%=      5-min Rain = 0
KDO1 240948Z 05004KT 17/17 A2992 RMK A01 T01710171  RH  100%=      5-min Rain = 0
KDO1 240949Z 03003KT 17/17 A2992 RMK A01 T01710172  RH  100%=      5-min Rain = 0
KDO1 240950Z 04001KT 17/17 A2993 RMK A01 T01710171  RH  100%=      5-min Rain = 0
KDO1 240951Z 08001KT 17/17 A2993 RMK A01 T01710171  RH  100%=      5-min Rain = 0
KDO1 240952Z 10002KT 17/17 A2993 RMK A01 T01710172  RH  100%=      5-min Rain = 0
KDO1 240953Z 10001KT 17/17 A2993 RMK A01 T01710171  RH  100%=      5-min Rain = 0
KDO1 240954Z 00000KT 17/17 A2993 RMK A01 T01710171  RH  100%=      5-min Rain = 0
KDO1 240955Z 06000KT 17/17 A2993 RMK A01 T01710171  RH  100%=      5-min Rain = 0
KDO1 240956Z 06002KT 17/17 A2993 RMK A01 T01710172  RH  100%=      5-min Rain = 0
KDO1 240957Z 06004KT 17/17 A2992 RMK A01 T01710172  RH  100%=      5-min Rain = 0
KDO1 240958Z 07004KT 17/17 A2992 RMK A01 T01710171  RH  100%=      5-min Rain = 0
KDO1 240959Z 08005KT 17/17 A2992 RMK A01 T01710171  RH  100%=      5-min Rain = 0
KDO1 241000Z 08005KT 17/17 A2991 RMK A01 T01710171  RH  100%=      5-min Rain = 0
KDO1 241001Z 08005KT 17/17 A2991 RMK A01 T01710171  RH  100%=      5-min Rain = 0
KDO1 241002Z 08005KT 17/17 A2991 RMK A01 T01700171  RH  100%=      5-min Rain = 0
KDO1 241003Z 08005KT 17/17 A2991 RMK A01 T01700171  RH  100%=      5-min Rain = 0
KDO1 241004Z 08005KT 17/17 A2991 RMK A01 T01700170  RH  100%=      5-min Rain = 0
KDO1 241005Z 08005KT 17/17 A2991 RMK A01 T01710171  RH  100%=      5-min Rain = 0
KDO1 241006Z 07005KT 17/17 A299 RMK A01 T01700170  RH  100%=      5-min Rain = 0
KDO1 241007Z 07005KT 17/17 A299 RMK A01 T01700171  RH  100%=      5-min Rain = 0
KDO1 241008Z 08006KT 17/17 A299 RMK A01 T01710171  RH  100%=      5-min Rain = 0
KDO1 241009Z 09006KT 17/17 A299 RMK A01 T01710171  RH  100%=      5-min Rain = 0
KDO1 241010Z 10007KT 17/17 A299 RMK A01 T01710171  RH  100%=      5-min Rain = 0
KDO1 241011Z 10006KT 17/17 A299 RMK A01 T01710171  RH  100%=      5-min Rain = 0
KDO1 241012Z 11007KT 17/17 A299 RMK A01 T01710172  RH  100%=      5-min Rain = 0
KDO1 241013Z 11007KT 17/17 A299 RMK A01 T01720172  RH  100%=      5-min Rain = 0
KDO1 241014Z 11006KT 17/17 A2991 RMK A01 T01720172  RH  100%=      5-min Rain = 0
KDO1 241015Z 13006KT 17/17 A2991 RMK A01 T01720172  RH  100%=      5-min Rain = 0
KDO1 241016Z 14007KT 17/17 A2992 RMK A01 T01720172  RH  100%=      5-min Rain = 0
KDO1 241017Z 15008KT 17/17 A2992 RMK A01 T01730173  RH  100%=      5-min Rain = 0
KDO1 241018Z 17009KT 17/17 A2993 RMK A01 T01730173  RH  100%=      5-min Rain = 0
KDO1 241019Z 19012KT 17/17 A2995 RMK A01 T01740174  RH  100%=      5-min Rain = 0
KDO1 241020Z 20014KT 17/17 A2996 RMK A01 T01740174  RH  100%=      5-min Rain = 0
KDO1 241021Z 20013KT 17/17 A2997 RMK A01 T01740174  RH  100%=      5-min Rain = 0
KDO1 241022Z 19011KT 18/18 A2996 RMK A01 T01750175  RH  100%=      5-min Rain = 0
KDO1 241023Z 17010KT 18/18 A2995 RMK A01 T01750175  RH  100%=      5-min Rain = 0
KDO1 241024Z 16008KT 18/18 A2995 RMK A01 T01750175  RH  100%=      5-min Rain = 0.01
KDO1 241025Z 15009KT 18/18 A2994 RMK A01 T01750175  RH  100%=      5-min Rain = 0.02
KDO1 241026Z 14008KT 17/17 A2993 RMK A01 T01740174  RH  100%=      5-min Rain = 0.01
KDO1 241027Z 13009KT 17/17 A2993 RMK A01 T01740174  RH  100%=      5-min Rain = 0.01
KDO1 241028Z 13010KT 17/17 A2993 RMK A01 T01730173  RH  100%=      5-min Rain = 0.02
KDO1 241029Z 12009KT 17/17 A2993 RMK A01 T01730173  RH  100%=      5-min Rain = 0.01
KDO1 241030Z 10008KT 17/17 A2992 RMK A01 T01720172  RH  100%=      5-min Rain = 0.01
KDO1 241031Z 09008KT 17/17 A2991 RMK A01 T01720172  RH  100%=      5-min Rain = 0
KDO1 241032Z 08009KT 17/17 A299 RMK A01 T01720172  RH  100%=      5-min Rain = 0.01
KDO1 241033Z 07011KT 17/17 A2989 RMK A01 T01710171  RH  100%=      5-min Rain = 0
KDO1 241034Z 07011KT 17/17 A2989 RMK A01 T01710171  RH  100%=      5-min Rain = 0
KDO1 241035Z 07008KT 17/17 A2989 RMK A01 T01710171  RH  100%=      5-min Rain = 0
KDO1 241036Z 08005KT 17/17 A299 RMK A01 T01720172  RH  100%=      5-min Rain = 0
KDO1 241037Z 14003KT 17/17 A2992 RMK A01 T01730173  RH  100%=      5-min Rain = 0
KDO1 241038Z 17004KT 17/17 A2993 RMK A01 T01730173  RH  100%=      5-min Rain = 0
KDO1 241039Z 17006KT 17/17 A2993 RMK A01 T01740174  RH  100%=      5-min Rain = 0
KDO1 241040Z 23005KT 18/18 A2994 RMK A01 T01750176  RH  100%=      5-min Rain = 0
KDO1 241041Z 22006KT 18/18 A2995 RMK A01 T01770177  RH  100%=      5-min Rain = 0
KDO1 241042Z 23010KT 18/18 A2996 RMK A01 T01770177  RH  100%=      5-min Rain = 0
KDO1 241043Z 24013G18KT 18/18 A2997 RMK A01 T01780178  RH  100%=      5-min Rain = 0
KDO1 241044Z 23017KT 18/18 A2998 RMK A01 T01780178  RH  100%=      5-min Rain = 0
KDO1 241045Z 25011G16KT 18/18 A2998 RMK A01 T01780178  RH  100%=      5-min Rain = 0
KDO1 241046Z 26010KT 18/18 A2997 RMK A01 T01790179  RH  100%=      5-min Rain = 0
KDO1 241047Z 26013KT 18/18 A2997 RMK A01 T01800180  RH  100%=      5-min Rain = 0
KDO1 241048Z 22011G20KT 18/18 A2997 RMK A01 T01810181  RH  100%=      5-min Rain = 0
KDO1 241049Z 19006KT 19/19 A2996 RMK A01 T01850185  RH  100%=      5-min Rain = 0
KDO1 241050Z 17006KT 19/19 A2997 RMK A01 T01880188  RH  100%=      5-min Rain = 0
KDO1 241051Z 18014G21KT 19/19 A2997 RMK A01 T01890189  RH  100%=      5-min Rain = 0
KDO1 241052Z 19012KT 19/19 A2997 RMK A01 T01930193  RH  100%=      5-min Rain = 0
KDO1 241053Z 19015KT 20/20 A2997 RMK A01 T01970196  RH  100%=      5-min Rain = 0
KDO1 241054Z 19012G18KT 20/20 A2996 RMK A01 T02000196  RH  097%=      5-min Rain = 0
KDO1 241055Z 19012KT 20/20 A2996 RMK A01 T02020195  RH  095%=      5-min Rain = 0
KDO1 241056Z 18007KT 20/19 A2996 RMK A01 T02040194  RH  094%=      5-min Rain = 0
KDO1 241057Z 19003KT 20/19 A2995 RMK A01 T02040194  RH  094%=      5-min Rain = 0
KDO1 241058Z 17005KT 20/19 A2995 RMK A01 T02040194  RH  094%=      5-min Rain = 0
KDO1 241059Z 15006KT 20/19 A2994 RMK A01 T02040193  RH  093%=      5-min Rain = 0
KDO1 241100Z 13005KT 20/19 A2993 RMK A01 T02030193  RH  094%=      5-min Rain = 0
KDO1 241101Z 12006KT 20/19 A2993 RMK A01 T02030193  RH  094%=      5-min Rain = 0
KDO1 241102Z 12006KT 20/19 A2993 RMK A01 T02020193  RH  094%=      5-min Rain = 0
KDO1 241103Z 14005KT 20/19 A2993 RMK A01 T02010193  RH  095%=      5-min Rain = 0
KDO1 241104Z 16008KT 20/19 A2994 RMK A01 T02000193  RH  096%=      5-min Rain = 0
KDO1 241105Z 18010KT 20/19 A2995 RMK A01 T01990191  RH  095%=      5-min Rain = 0
KDO1 241106Z 16008KT 20/19 A2995 RMK A01 T01980189  RH  094%=      5-min Rain = 0
KDO1 241107Z 17006KT 20/19 A2995 RMK A01 T01990188  RH  094%=      5-min Rain = 0
KDO1 241108Z 19005KT 20/19 A2995 RMK A01 T01990188  RH  094%=      5-min Rain = 0
KDO1 241109Z 19006KT 20/19 A2995 RMK A01 T01990188  RH  094%=      5-min Rain = 0
KDO1 241110Z 18003KT 20/19 A2995 RMK A01 T01990188  RH  094%=      5-min Rain = 0.01
KDO1 241111Z 19002KT 20/19 A2995 RMK A01 T01990189  RH  094%=      5-min Rain = 0
KDO1 241112Z 20000KT 20/19 A2995 RMK A01 T01980189  RH  095%=      5-min Rain = 0
KDO1 241113Z 26001KT 20/19 A2995 RMK A01 T01980189  RH  095%=      5-min Rain = 0
KDO1 241114Z 26002KT 20/19 A2995 RMK A01 T01970189  RH  095%=      5-min Rain = 0
KDO1 241115Z 29005KT 20/19 A2995 RMK A01 T01970190  RH  096%=      5-min Rain = 0
KDO1 241116Z 28006KT 20/19 A2995 RMK A01 T01960192  RH  098%=      5-min Rain = 0
KDO1 241117Z 28008KT 19/19 A2995 RMK A01 T01940192  RH  099%=      5-min Rain = 0
KDO1 241118Z 29007KT 19/19 A2995 RMK A01 T01930192  RH  099%=      5-min Rain = 0
KDO1 241119Z 29007KT 19/19 A2995 RMK A01 T01930191  RH  099%=      5-min Rain = 0
KDO1 241120Z 29005KT 19/19 A2995 RMK A01 T01920190  RH  099%=      5-min Rain = 0
KDO1 241121Z 29004KT 19/19 A2995 RMK A01 T01920190  RH  099%=      5-min Rain = 0
KDO1 241122Z 30004KT 19/19 A2994 RMK A01 T01920191  RH  099%=      5-min Rain = 0
KDO1 241123Z 31005KT 19/19 A2994 RMK A01 T01910190  RH  100%=      5-min Rain = 0
KDO1 241124Z 31004KT 19/19 A2994 RMK A01 T01910190  RH  100%=      5-min Rain = 0
KDO1 241125Z 31004KT 19/19 A2994 RMK A01 T01910190  RH  100%=      5-min Rain = 0
KDO1 241126Z 32005KT 19/19 A2994 RMK A01 T01900190  RH  100%=      5-min Rain = 0
KDO1 241127Z 32005KT 19/19 A2994 RMK A01 T01900190  RH  100%=      5-min Rain = 0
KDO1 241128Z 32004KT 19/19 A2994 RMK A01 T01900190  RH  100%=      5-min Rain = 0
KDO1 241129Z 32003KT 19/19 A2994 RMK A01 T01900190  RH  100%=      5-min Rain = 0
KDO1 241130Z 30002KT 19/19 A2994 RMK A01 T01890189  RH  100%=      5-min Rain = 0
KDO1 241131Z 29002KT 19/19 A2994 RMK A01 T01890189  RH  100%=      5-min Rain = 0
KDO1 241132Z 29003KT 19/19 A2994 RMK A01 T01880188  RH  100%=      5-min Rain = 0
KDO1 241133Z 36002KT 19/19 A2994 RMK A01 T01880188  RH  100%=      5-min Rain = 0
KDO1 241134Z 01003KT 19/19 A2993 RMK A01 T01870187  RH  100%=      5-min Rain = 0
KDO1 241135Z 05001KT 19/19 A2993 RMK A01 T01870187  RH  100%=      5-min Rain = 0
KDO1 241136Z 27003KT 19/19 A2993 RMK A01 T01870187  RH  100%=      5-min Rain = 0
KDO1 241137Z 28004KT 19/19 A2993 RMK A01 T01870187  RH  100%=      5-min Rain = 0
KDO1 241138Z 28005KT 19/19 A2993 RMK A01 T01870187  RH  100%=      5-min Rain = 0
KDO1 241139Z 28007KT 19/19 A2994 RMK A01 T01870187  RH  100%=      5-min Rain = 0
KDO1 241140Z 28007KT 19/19 A2994 RMK A01 T01860186  RH  100%=      5-min Rain = 0
KDO1 241141Z 29006KT 19/19 A2995 RMK A01 T01860186  RH  100%=      5-min Rain = 0
KDO1 241142Z 29005KT 19/19 A2995 RMK A01 T01860186  RH  100%=      5-min Rain = 0
KDO1 241143Z 29007KT 19/19 A2995 RMK A01 T01850185  RH  100%=      5-min Rain = 0
KDO1 241144Z 29006KT 19/19 A2995 RMK A01 T01850185  RH  100%=      5-min Rain = 0
KDO1 241145Z 29007KT 19/19 A2996 RMK A01 T01850185  RH  100%=      5-min Rain = 0
KDO1 241146Z 29007KT 18/18 A2996 RMK A01 T01840184  RH  100%=      5-min Rain = 0
KDO1 241147Z 29006KT 18/18 A2996 RMK A01 T01840184  RH  100%=      5-min Rain = 0
KDO1 241148Z 29008KT 18/18 A2996 RMK A01 T01840184  RH  100%=      5-min Rain = 0
KDO1 241149Z 28008KT 19/19 A2996 RMK A01 T01850185  RH  100%=      5-min Rain = 0
KDO1 241150Z 28008KT 19/19 A2996 RMK A01 T01850185  RH  100%=      5-min Rain = 0
KDO1 241151Z 29008KT 19/19 A2996 RMK A01 T01860185  RH  099%=      5-min Rain = 0
KDO1 241152Z 29008KT 19/18 A2996 RMK A01 T01860184  RH  099%=      5-min Rain = 0
KDO1 241153Z 29008KT 19/18 A2996 RMK A01 T01860184  RH  099%=      5-min Rain = 0
KDO1 241154Z 29007KT 19/18 A2996 RMK A01 T01860184  RH  099%=      5-min Rain = 0
KDO1 241155Z 29007KT 19/18 A2996 RMK A01 T01850183  RH  099%=      5-min Rain = 0
KDO1 241156Z 29006KT 19/18 A2996 RMK A01 T01850183  RH  099%=      5-min Rain = 0
KDO1 241157Z 29006KT 18/18 A2996 RMK A01 T01840183  RH  099%=      5-min Rain = 0
KDO1 241158Z 29006KT 18/18 A2997 RMK A01 T01840183  RH  100%=      5-min Rain = 0
KDO1 241159Z 30007KT 18/18 A2997 RMK A01 T01830183  RH  100%=      5-min Rain = 0
KDO1 241200Z 30007KT 18/18 A2997 RMK A01 T01820183  RH  100%=      5-min Rain = 0
KDO1 241201Z 29006KT 18/18 A2997 RMK A01 T01820182  RH  100%=      5-min Rain = 0
KDO1 241202Z 30006KT 18/18 A2997 RMK A01 T01820182  RH  100%=      5-min Rain = 0
KDO1 241203Z 28006KT 18/18 A2997 RMK A01 T01810182  RH  100%=      5-min Rain = 0
KDO1 241204Z 28006KT 18/18 A2997 RMK A01 T01810181  RH  100%=      5-min Rain = 0
KDO1 241205Z 29007KT 18/18 A2997 RMK A01 T01810181  RH  100%=      5-min Rain = 0
KDO1 241206Z 29009KT 18/18 A2997 RMK A01 T01810181  RH  100%=      5-min Rain = 0
KDO1 241207Z 29009KT 18/18 A2997 RMK A01 T01810181  RH  100%=      5-min Rain = 0
KDO1 241208Z 29010KT 18/18 A2997 RMK A01 T01810180  RH  100%=      5-min Rain = 0
KDO1 241209Z 29009KT 18/18 A2997 RMK A01 T01800179  RH  099%=      5-min Rain = 0
KDO1 241210Z 30008KT 18/18 A2997 RMK A01 T01800179  RH  099%=      5-min Rain = 0
KDO1 241211Z 30007KT 18/18 A2997 RMK A01 T01800178  RH  099%=      5-min Rain = 0
KDO1 241212Z 29007KT 18/18 A2997 RMK A01 T01800178  RH  099%=      5-min Rain = 0
KDO1 241213Z 29007KT 18/18 A2997 RMK A01 T01790177  RH  099%=      5-min Rain = 0
KDO1 241214Z 30006KT 18/18 A2997 RMK A01 T01790176  RH  099%=      5-min Rain = 0
KDO1 241215Z 30006KT 18/18 A2997 RMK A01 T01780176  RH  099%=      5-min Rain = 0
KDO1 241216Z 31007KT 18/18 A2997 RMK A01 T01780176  RH  099%=      5-min Rain = 0
KDO1 241217Z 31006KT 18/18 A2997 RMK A01 T01780176  RH  099%=      5-min Rain = 0
KDO1 241218Z 31005KT 18/18 A2997 RMK A01 T01780176  RH  099%=      5-min Rain = 0
KDO1 241219Z 31005KT 18/18 A2997 RMK A01 T01780177  RH  100%=      5-min Rain = 0
KDO1 241220Z 31004KT 18/18 A2997 RMK A01 T01770177  RH  100%=      5-min Rain = 0
KDO1 241221Z 32004KT 18/18 A2997 RMK A01 T01770177  RH  100%=      5-min Rain = 0
KDO1 241222Z 32005KT 18/18 A2997 RMK A01 T01770177  RH  100%=      5-min Rain = 0
KDO1 241223Z 32005KT 18/18 A2997 RMK A01 T01770176  RH  100%=      5-min Rain = 0
KDO1 241224Z 32005KT 18/18 A2997 RMK A01 T01770175  RH  099%=      5-min Rain = 0
KDO1 241225Z 32004KT 18/18 A2997 RMK A01 T01770176  RH  099%=      5-min Rain = 0
KDO1 241226Z 33004KT 18/18 A2997 RMK A01 T01770176  RH  099%=      5-min Rain = 0
KDO1 241227Z 34004KT 18/18 A2997 RMK A01 T01770175  RH  099%=      5-min Rain = 0
KDO1 241228Z 35003KT 18/18 A2997 RMK A01 T01770176  RH  099%=      5-min Rain = 0
KDO1 241229Z 02003KT 18/18 A2997 RMK A01 T01770175  RH  099%=      5-min Rain = 0
KDO1 241230Z 02004KT 18/18 A2997 RMK A01 T01780177  RH  100%=      5-min Rain = 0
KDO1 241231Z 03005KT 18/18 A2997 RMK A01 T01780178  RH  100%=      5-min Rain = 0
KDO1 241232Z 02005KT 18/18 A2997 RMK A01 T01780178  RH  100%=      5-min Rain = 0
KDO1 241233Z 02004KT 18/18 A2997 RMK A01 T01770177  RH  100%=      5-min Rain = 0
KDO1 241234Z 02004KT 18/18 A2997 RMK A01 T01770177  RH  100%=      5-min Rain = 0
KDO1 241235Z 01005KT 18/18 A2997 RMK A01 T01760176  RH  100%=      5-min Rain = 0
KDO1 241236Z 35004KT 18/18 A2997 RMK A01 T01760176  RH  100%=      5-min Rain = 0
KDO1 241237Z 35005KT 18/18 A2997 RMK A01 T01760176  RH  100%=      5-min Rain = 0
KDO1 241238Z 35004KT 18/18 A2997 RMK A01 T01760176  RH  100%=      5-min Rain = 0
KDO1 241239Z 35005KT 18/18 A2997 RMK A01 T01760176  RH  100%=      5-min Rain = 0
KDO1 241240Z 35005KT 18/18 A2997 RMK A01 T01760176  RH  100%=      5-min Rain = 0
KDO1 241241Z 35004KT 18/18 A2997 RMK A01 T01760176  RH  100%=      5-min Rain = 0
KDO1 241242Z 35005KT 18/18 A2997 RMK A01 T01760176  RH  100%=      5-min Rain = 0
KDO1 241243Z 35006KT 18/18 A2997 RMK A01 T01770177  RH  100%=      5-min Rain = 0
KDO1 241244Z 00005KT 18/18 A2997 RMK A01 T01770177  RH  100%=      5-min Rain = 0
KDO1 241245Z 36005KT 18/18 A2997 RMK A01 T01770177  RH  100%=      5-min Rain = 0
KDO1 241246Z 36005KT 18/18 A2997 RMK A01 T01760176  RH  100%=      5-min Rain = 0
KDO1 241247Z 35004KT 18/18 A2997 RMK A01 T01760176  RH  100%=      5-min Rain = 0
KDO1 241248Z 35006KT 18/18 A2997 RMK A01 T01760176  RH  100%=      5-min Rain = 0
KDO1 241249Z 34006KT 18/18 A2997 RMK A01 T01760176  RH  100%=      5-min Rain = 0
KDO1 241250Z 35007KT 18/18 A2997 RMK A01 T01760176  RH  100%=      5-min Rain = 0
KDO1 241251Z 34006KT 18/18 A2997 RMK A01 T01760176  RH  100%=      5-min Rain = 0
KDO1 241252Z 34006KT 18/18 A2997 RMK A01 T01760176  RH  100%=      5-min Rain = 0
KDO1 241253Z 34006KT 18/18 A2997 RMK A01 T01750175  RH  100%=      5-min Rain = 0
KDO1 241254Z 34005KT 18/18 A2997 RMK A01 T01750175  RH  100%=      5-min Rain = 0
KDO1 241255Z 34005KT 18/18 A2997 RMK A01 T01750175  RH  100%=      5-min Rain = 0
KDO1 241256Z 35005KT 18/18 A2997 RMK A01 T01750175  RH  100%=      5-min Rain = 0
KDO1 241257Z 34004KT 17/18 A2997 RMK A01 T01740175  RH  100%=      5-min Rain = 0
KDO1 241258Z 34005KT 17/18 A2997 RMK A01 T01740175  RH  100%=      5-min Rain = 0
KDO1 241259Z 34005KT 17/18 A2997 RMK A01 T01740175  RH  100%=      5-min Rain = 0
KDO1 241300Z 35006KT 18/18 A2997 RMK A01 T01750175  RH  100%=      5-min Rain = 0
KDO1 241301Z 35006KT 17/18 A2997 RMK A01 T01740175  RH  100%=      5-min Rain = 0
KDO1 241302Z 34006KT 17/18 A2997 RMK A01 T01740175  RH  100%=      5-min Rain = 0
KDO1 241303Z 34006KT 18/18 A2997 RMK A01 T01750175  RH  100%=      5-min Rain = 0
KDO1 241304Z 34006KT 17/18 A2997 RMK A01 T01740175  RH  100%=      5-min Rain = 0
KDO1 241305Z 34006KT 18/18 A2997 RMK A01 T01750175  RH  100%=      5-min Rain = 0
KDO1 241306Z 34005KT 18/18 A2997 RMK A01 T01750175  RH  100%=      5-min Rain = 0
KDO1 241307Z 34005KT 18/18 A2997 RMK A01 T01750175  RH  100%=      5-min Rain = 0
KDO1 241308Z 34005KT 18/18 A2997 RMK A01 T01750175  RH  100%=      5-min Rain = 0
KDO1 241309Z 34004KT 18/18 A2997 RMK A01 T01750175  RH  100%=      5-min Rain = 0
KDO1 241310Z 35004KT 18/18 A2997 RMK A01 T01750175  RH  100%=      5-min Rain = 0
KDO1 241311Z 35006KT 18/18 A2998 RMK A01 T01750175  RH  100%=      5-min Rain = 0
KDO1 241312Z 35005KT 18/18 A2998 RMK A01 T01750175  RH  100%=      5-min Rain = 0
KDO1 241313Z 35005KT 18/18 A2998 RMK A01 T01750175  RH  100%=      5-min Rain = 0
KDO1 241314Z 35005KT 18/18 A2998 RMK A01 T01750175  RH  100%=      5-min Rain = 0
KDO1 241315Z 36004KT 18/18 A2997 RMK A01 T01750175  RH  100%=      5-min Rain = 0
KDO1 241316Z 36004KT 18/18 A2997 RMK A01 T01750175  RH  100%=      5-min Rain = 0
KDO1 241317Z 35005KT 18/18 A2997 RMK A01 T01750175  RH  100%=      5-min Rain = 0
KDO1 241318Z 35005KT 18/18 A2997 RMK A01 T01750175  RH  100%=      5-min Rain = 0
KDO1 241319Z 36005KT 18/18 A2997 RMK A01 T01750175  RH  100%=      5-min Rain = 0
KDO1 241320Z 36005KT 17/18 A2997 RMK A01 T01740175  RH  100%=      5-min Rain = 0
KDO1 241321Z 00005KT 17/18 A2997 RMK A01 T01740175  RH  100%=      5-min Rain = 0
KDO1 241322Z 36006KT 18/18 A2997 RMK A01 T01750175  RH  100%=      5-min Rain = 0
KDO1 241323Z 36004KT 18/18 A2997 RMK A01 T01750175  RH  100%=      5-min Rain = 0
KDO1 241324Z 00006KT 18/18 A2997 RMK A01 T01750175  RH  100%=      5-min Rain = 0
KDO1 241325Z 00004KT 17/17 A2997 RMK A01 T01740174  RH  100%=      5-min Rain = 0
KDO1 241326Z 35005KT 17/17 A2997 RMK A01 T01740174  RH  100%=      5-min Rain = 0
KDO1 241327Z 35006KT 17/17 A2997 RMK A01 T01740174  RH  100%=      5-min Rain = 0
KDO1 241328Z 35007KT 17/17 A2997 RMK A01 T01730173  RH  100%=      5-min Rain = 0
KDO1 241329Z 36006KT 17/17 A2997 RMK A01 T01730173  RH  100%=      5-min Rain = 0
KDO1 241330Z 36006KT 17/17 A2997 RMK A01 T01720172  RH  100%=      5-min Rain = 0
KDO1 241331Z 00004KT 17/17 A2997 RMK A01 T01720172  RH  100%=      5-min Rain = 0
KDO1 241332Z 36005KT 17/17 A2997 RMK A01 T01720172  RH  100%=      5-min Rain = 0
KDO1 241333Z 00005KT 17/17 A2997 RMK A01 T01720172  RH  100%=      5-min Rain = 0
KDO1 241334Z 00006KT 17/17 A2997 RMK A01 T01720172  RH  100%=      5-min Rain = 0
KDO1 241335Z 36006KT 17/17 A2997 RMK A01 T01720172  RH  100%=      5-min Rain = 0
KDO1 241336Z 36005KT 17/17 A2997 RMK A01 T01720172  RH  100%=      5-min Rain = 0
KDO1 241337Z 00004KT 17/17 A2997 RMK A01 T01720172  RH  100%=      5-min Rain = 0
KDO1 241338Z 01007KT 17/17 A2997 RMK A01 T01720172  RH  100%=      5-min Rain = 0
KDO1 241339Z 01006KT 17/17 A2997 RMK A01 T01720172  RH  100%=      5-min Rain = 0
KDO1 241340Z 00006KT 17/17 A2997 RMK A01 T01710171  RH  100%=      5-min Rain = 0
KDO1 241341Z 36007KT 17/17 A2997 RMK A01 T01700170  RH  100%=      5-min Rain = 0
KDO1 241342Z 01006KT 17/17 A2997 RMK A01 T01700170  RH  100%=      5-min Rain = 0
KDO1 241343Z 00006KT 17/17 A2997 RMK A01 T01690169  RH  100%=      5-min Rain = 0
KDO1 241344Z 36007KT 17/17 A2997 RMK A01 T01690169  RH  100%=      5-min Rain = 0
KDO1 241345Z 00006KT 17/17 A2997 RMK A01 T01690169  RH  100%=      5-min Rain = 0
KDO1 241346Z 36005KT 17/17 A2997 RMK A01 T01690169  RH  100%=      5-min Rain = 0
KDO1 241347Z 01004KT 17/17 A2997 RMK A01 T01690169  RH  100%=      5-min Rain = 0
KDO1 241348Z 35004KT 17/17 A2997 RMK A01 T01690169  RH  100%=      5-min Rain = 0
KDO1 241349Z 01005KT 17/17 A2997 RMK A01 T01680168  RH  100%=      5-min Rain = 0
KDO1 241350Z 36005KT 17/17 A2997 RMK A01 T01690169  RH  100%=      5-min Rain = 0
KDO1 241351Z 00004KT 17/17 A2997 RMK A01 T01690169  RH  100%=      5-min Rain = 0
KDO1 241352Z 01005KT 17/17 A2997 RMK A01 T01690169  RH  100%=      5-min Rain = 0
KDO1 241353Z 00004KT 17/17 A2997 RMK A01 T01690169  RH  100%=      5-min Rain = 0
KDO1 241354Z 35003KT 17/17 A2998 RMK A01 T01700170  RH  100%=      5-min Rain = 0
KDO1 241355Z 35005KT 17/17 A2998 RMK A01 T01700170  RH  100%=      5-min Rain = 0
KDO1 241356Z 35006KT 17/17 A2998 RMK A01 T01700170  RH  100%=      5-min Rain = 0
KDO1 241357Z 35005KT 17/17 A2998 RMK A01 T01700170  RH  100%=      5-min Rain = 0
KDO1 241358Z 35007KT 17/17 A2998 RMK A01 T01700170  RH  100%=      5-min Rain = 0
KDO1 241359Z 35006KT 17/17 A2998 RMK A01 T01690169  RH  100%=      5-min Rain = 0
KDO1 241400Z 35007KT 17/17 A2998 RMK A01 T01690169  RH  100%=      5-min Rain = 0
KDO1 241401Z 35008KT 17/17 A2998 RMK A01 T01690169  RH  100%=      5-min Rain = 0
KDO1 241402Z 35006KT 17/17 A2998 RMK A01 T01690169  RH  100%=      5-min Rain = 0
KDO1 241403Z 35007KT 17/17 A2998 RMK A01 T01690169  RH  100%=      5-min Rain = 0
KDO1 241404Z 35007KT 17/17 A2998 RMK A01 T01690169  RH  100%=      5-min Rain = 0
KDO1 241405Z 35006KT 17/17 A2998 RMK A01 T01690169  RH  100%=      5-min Rain = 0
KDO1 241406Z 35007KT 17/17 A2998 RMK A01 T01690169  RH  100%=      5-min Rain = 0
KDO1 241407Z 34006KT 17/17 A2998 RMK A01 T01690169  RH  100%=      5-min Rain = 0
KDO1 241408Z 35005KT 17/17 A2998 RMK A01 T01690169  RH  100%=      5-min Rain = 0
KDO1 241409Z 35006KT 17/17 A2998 RMK A01 T01700170  RH  100%=      5-min Rain = 0
KDO1 241410Z 35007KT 17/17 A2998 RMK A01 T01700170  RH  100%=      5-min Rain = 0
KDO1 241411Z 34006KT 17/17 A2998 RMK A01 T01700170  RH  100%=      5-min Rain = 0
KDO1 241412Z 34006KT 17/17 A2998 RMK A01 T01700170  RH  100%=      5-min Rain = 0
KDO1 241413Z 35005KT 17/17 A2998 RMK A01 T01700170  RH  100%=      5-min Rain = 0
KDO1 241414Z 35004KT 17/17 A2998 RMK A01 T01700171  RH  100%=      5-min Rain = 0
KDO1 241415Z 35005KT 17/17 A2998 RMK A01 T01700170  RH  100%=      5-min Rain = 0
KDO1 241416Z 35005KT 17/17 A2998 RMK A01 T01700171  RH  100%=      5-min Rain = 0
KDO1 241417Z 35005KT 17/17 A2998 RMK A01 T01710171  RH  100%=      5-min Rain = 0
KDO1 241418Z 35005KT 17/17 A2998 RMK A01 T01710171  RH  100%=      5-min Rain = 0
KDO1 241419Z 35007KT 17/17 A2998 RMK A01 T01710171  RH  100%=      5-min Rain = 0
KDO1 241420Z 35006KT 17/17 A2998 RMK A01 T01710171  RH  100%=      5-min Rain = 0
KDO1 241421Z 36006KT 17/17 A2998 RMK A01 T01710171  RH  100%=      5-min Rain = 0
KDO1 241422Z 36007KT 17/17 A2998 RMK A01 T01710171  RH  100%=      5-min Rain = 0
KDO1 241423Z 00006KT 17/17 A2998 RMK A01 T01710171  RH  100%=      5-min Rain = 0
KDO1 241424Z 01004KT 17/17 A2998 RMK A01 T01710171  RH  100%=      5-min Rain = 0
KDO1 241425Z 36006KT 17/17 A2998 RMK A01 T01710171  RH  100%=      5-min Rain = 0
KDO1 241426Z 36005KT 17/17 A2998 RMK A01 T01710171  RH  100%=      5-min Rain = 0
KDO1 241427Z 01005KT 17/17 A2997 RMK A01 T01710171  RH  100%=      5-min Rain = 0
KDO1 241428Z 00005KT 17/17 A2997 RMK A01 T01710171  RH  100%=      5-min Rain = 0
KDO1 241429Z 00006KT 17/17 A2997 RMK A01 T01710171  RH  100%=      5-min Rain = 0
KDO1 241430Z 00006KT 17/17 A2997 RMK A01 T01710171  RH  100%=      5-min Rain = 0
KDO1 241431Z 00005KT 17/17 A2997 RMK A01 T01710171  RH  100%=      5-min Rain = 0
KDO1 241432Z 01005KT 17/17 A2997 RMK A01 T01710172  RH  100%=      5-min Rain = 0
KDO1 241433Z 01006KT 17/17 A2998 RMK A01 T01720172  RH  100%=      5-min Rain = 0
KDO1 241434Z 01006KT 17/17 A2998 RMK A01 T01710171  RH  100%=      5-min Rain = 0
KDO1 241435Z 01004KT 17/17 A2997 RMK A01 T01710171  RH  100%=      5-min Rain = 0
KDO1 241436Z 00005KT 17/17 A2997 RMK A01 T01710171  RH  100%=      5-min Rain = 0
KDO1 241437Z 00006KT 17/17 A2997 RMK A01 T01710171  RH  100%=      5-min Rain = 0
KDO1 241438Z 36005KT 17/17 A2997 RMK A01 T01710170  RH  100%=      5-min Rain = 0
KDO1 241439Z 36006KT 17/17 A2997 RMK A01 T01710170  RH  099%=      5-min Rain = 0
KDO1 241440Z 35005KT 17/17 A2997 RMK A01 T01710170  RH  099%=      5-min Rain = 0
KDO1 241441Z 35007KT 17/17 A2997 RMK A01 T01710170  RH  099%=      5-min Rain = 0
KDO1 241442Z 36005KT 17/17 A2997 RMK A01 T01710170  RH  099%=      5-min Rain = 0
KDO1 241443Z 36007KT 17/17 A2997 RMK A01 T01710170  RH  100%=      5-min Rain = 0
KDO1 241444Z 36005KT 17/17 A2997 RMK A01 T01710170  RH  099%=      5-min Rain = 0
KDO1 241445Z 00006KT 17/17 A2997 RMK A01 T01710171  RH  100%=      5-min Rain = 0
KDO1 241446Z 35005KT 17/17 A2997 RMK A01 T01710171  RH  100%=      5-min Rain = 0
KDO1 241447Z 35004KT 17/17 A2997 RMK A01 T01720171  RH  100%=      5-min Rain = 0
KDO1 241448Z 35005KT 17/17 A2997 RMK A01 T01710171  RH  100%=      5-min Rain = 0
KDO1 241449Z 34005KT 17/17 A2997 RMK A01 T01710171  RH  100%=      5-min Rain = 0
KDO1 241450Z 35005KT 17/17 A2997 RMK A01 T01710171  RH  100%=      5-min Rain = 0
KDO1 241451Z 35005KT 17/17 A2998 RMK A01 T01710171  RH  100%=      5-min Rain = 0
KDO1 241452Z 35007KT 17/17 A2998 RMK A01 T01710170  RH  099%=      5-min Rain = 0
KDO1 241453Z 00006KT 17/17 A2998 RMK A01 T01710169  RH  098%=      5-min Rain = 0
KDO1 241454Z 36005KT 17/17 A2998 RMK A01 T01710170  RH  099%=      5-min Rain = 0
KDO1 241455Z 35007KT 17/17 A2998 RMK A01 T01710169  RH  098%=      5-min Rain = 0
KDO1 241456Z 35007KT 17/17 A2997 RMK A01 T01710169  RH  099%=      5-min Rain = 0
KDO1 241457Z 35007KT 17/17 A2997 RMK A01 T01710169  RH  099%=      5-min Rain = 0
KDO1 241458Z 35006KT 17/17 A2997 RMK A01 T01710169  RH  098%=      5-min Rain = 0
KDO1 241459Z 35007KT 17/17 A2998 RMK A01 T01710169  RH  099%=      5-min Rain = 0
KDO1 241500Z 36007KT 17/17 A2998 RMK A01 T01710169  RH  098%=      5-min Rain = 0
KDO1 241501Z 36006KT 17/17 A2997 RMK A01 T01710169  RH  099%=      5-min Rain = 0
KDO1 241502Z 36006KT 17/17 A2997 RMK A01 T01710169  RH  099%=      5-min Rain = 0
KDO1 241503Z 35006KT 17/17 A2997 RMK A01 T01710169  RH  099%=      5-min Rain = 0
KDO1 241504Z 36006KT 17/17 A2997 RMK A01 T01710170  RH  099%=      5-min Rain = 0
KDO1 241505Z 36006KT 17/17 A2997 RMK A01 T01710169  RH  099%=      5-min Rain = 0
KDO1 241506Z 35005KT 17/17 A2998 RMK A01 T01710170  RH  099%=      5-min Rain = 0
KDO1 241507Z 36005KT 17/17 A2998 RMK A01 T01710170  RH  099%=      5-min Rain = 0
KDO1 241508Z 35006KT 17/17 A2998 RMK A01 T01710171  RH  099%=      5-min Rain = 0
KDO1 241509Z 36006KT 17/17 A2998 RMK A01 T01710170  RH  099%=      5-min Rain = 0
KDO1 241510Z 35006KT 17/17 A2998 RMK A01 T01710170  RH  099%=      5-min Rain = 0
KDO1 241511Z 35005KT 17/17 A2998 RMK A01 T01720171  RH  099%=      5-min Rain = 0
KDO1 241512Z 35006KT 17/17 A2998 RMK A01 T01720171  RH  099%=      5-min Rain = 0
KDO1 241513Z 35005KT 17/17 A2998 RMK A01 T01720170  RH  099%=      5-min Rain = 0
KDO1 241514Z 35004KT 17/17 A2998 RMK A01 T01720171  RH  099%=      5-min Rain = 0
KDO1 241515Z 36005KT 17/17 A2998 RMK A01 T01720171  RH  100%=      5-min Rain = 0
KDO1 241516Z 35004KT 17/17 A2998 RMK A01 T01720172  RH  100%=      5-min Rain = 0
KDO1 241517Z 36006KT 17/17 A2998 RMK A01 T01730173  RH  100%=      5-min Rain = 0
KDO1 241518Z 36004KT 17/17 A2998 RMK A01 T01730172  RH  099%=      5-min Rain = 0
KDO1 241519Z 00005KT 17/17 A2998 RMK A01 T01730172  RH  099%=      5-min Rain = 0
KDO1 241520Z 35007KT 17/17 A2998 RMK A01 T01730170  RH  099%=      5-min Rain = 0
KDO1 241521Z 36006KT 17/17 A2998 RMK A01 T01730170  RH  098%=      5-min Rain = 0
KDO1 241522Z 35006KT 17/17 A2998 RMK A01 T01720169  RH  098%=      5-min Rain = 0
KDO1 241523Z 35005KT 17/17 A2998 RMK A01 T01720169  RH  098%=      5-min Rain = 0
KDO1 241524Z 35006KT 17/17 A2998 RMK A01 T01720170  RH  098%=      5-min Rain = 0
KDO1 241525Z 35004KT 17/17 A2998 RMK A01 T01720170  RH  099%=      5-min Rain = 0
KDO1 241526Z 00006KT 17/17 A2998 RMK A01 T01720171  RH  100%=      5-min Rain = 0
KDO1 241527Z 00005KT 17/17 A2998 RMK A01 T01720171  RH  099%=      5-min Rain = 0
KDO1 241528Z 00004KT 17/17 A2998 RMK A01 T01720171  RH  099%=      5-min Rain = 0
KDO1 241529Z 36004KT 17/17 A2998 RMK A01 T01720171  RH  100%=      5-min Rain = 0
KDO1 241530Z 36004KT 17/17 A2998 RMK A01 T01720172  RH  100%=      5-min Rain = 0
KDO1 241531Z 35005KT 17/17 A2998 RMK A01 T01720172  RH  100%=      5-min Rain = 0
KDO1 241532Z 36005KT 17/17 A2998 RMK A01 T01720171  RH  099%=      5-min Rain = 0
KDO1 241533Z 36006KT 17/17 A2998 RMK A01 T01720171  RH  099%=      5-min Rain = 0
KDO1 241534Z 00006KT 17/17 A2998 RMK A01 T01720171  RH  099%=      5-min Rain = 0
KDO1 241535Z 00006KT 17/17 A2998 RMK A01 T01720171  RH  100%=      5-min Rain = 0
KDO1 241536Z 01005KT 17/17 A2998 RMK A01 T01720172  RH  100%=      5-min Rain = 0
KDO1 241537Z 00006KT 17/17 A2998 RMK A01 T01720172  RH  100%=      5-min Rain = 0
KDO1 241538Z 35004KT 17/17 A2998 RMK A01 T01720172  RH  100%=      5-min Rain = 0
KDO1 241539Z 00006KT 17/17 A2998 RMK A01 T01720172  RH  100%=      5-min Rain = 0
KDO1 241540Z 36007KT 17/17 A2998 RMK A01 T01720172  RH  100%=      5-min Rain = 0
KDO1 241541Z 35006KT 17/17 A2998 RMK A01 T01720172  RH  100%=      5-min Rain = 0
KDO1 241542Z 36007KT 17/17 A2998 RMK A01 T01720172  RH  100%=      5-min Rain = 0
KDO1 241543Z 36006KT 17/17 A2998 RMK A01 T01720172  RH  100%=      5-min Rain = 0
KDO1 241544Z 35006KT 17/17 A2998 RMK A01 T01720172  RH  100%=      5-min Rain = 0
KDO1 241545Z 36005KT 17/17 A2998 RMK A01 T01720172  RH  100%=      5-min Rain = 0
KDO1 241546Z 36005KT 17/17 A2998 RMK A01 T01720172  RH  100%=      5-min Rain = 0
KDO1 241547Z 00006KT 17/17 A2998 RMK A01 T01720172  RH  100%=      5-min Rain = 0
KDO1 241548Z 00006KT 17/17 A2998 RMK A01 T01720172  RH  100%=      5-min Rain = 0
KDO1 241549Z 01006KT 17/17 A2998 RMK A01 T01720172  RH  100%=      5-min Rain = 0
KDO1 241550Z 00006KT 17/17 A2998 RMK A01 T01720172  RH  100%=      5-min Rain = 0
KDO1 241551Z 00005KT 17/17 A2998 RMK A01 T01720172  RH  100%=      5-min Rain = 0
KDO1 241552Z 00005KT 17/17 A2998 RMK A01 T01720172  RH  100%=      5-min Rain = 0
KDO1 241553Z 00007KT 17/17 A2998 RMK A01 T01720172  RH  100%=      5-min Rain = 0
KDO1 241554Z 36007KT 17/17 A2998 RMK A01 T01720172  RH  100%=      5-min Rain = 0
KDO1 241555Z 00006KT 17/17 A2998 RMK A01 T01720172  RH  100%=      5-min Rain = 0
KDO1 241556Z 01006KT 17/17 A2998 RMK A01 T01720172  RH  100%=      5-min Rain = 0
KDO1 241557Z 01006KT 17/17 A2998 RMK A01 T01730173  RH  100%=      5-min Rain = 0
KDO1 241558Z 35004KT 17/17 A2998 RMK A01 T01730173  RH  100%=      5-min Rain = 0
KDO1 241559Z 36005KT 17/17 A2998 RMK A01 T01730173  RH  100%=      5-min Rain = 0
KDO1 241600Z 36006KT 17/17 A2998 RMK A01 T01730173  RH  100%=      5-min Rain = 0
KDO1 241601Z 35006KT 17/17 A2998 RMK A01 T01730173  RH  100%=      5-min Rain = 0
KDO1 241602Z 35007KT 17/17 A2998 RMK A01 T01730173  RH  100%=      5-min Rain = 0
KDO1 241603Z 35004KT 17/17 A2998 RMK A01 T01730173  RH  100%=      5-min Rain = 0
KDO1 241604Z 35005KT 17/17 A2998 RMK A01 T01740174  RH  100%=      5-min Rain = 0
KDO1 241605Z 35005KT 17/17 A2998 RMK A01 T01740174  RH  100%=      5-min Rain = 0
KDO1 241606Z 35006KT 17/17 A2998 RMK A01 T01740174  RH  100%=      5-min Rain = 0
KDO1 241607Z 35006KT 17/17 A2998 RMK A01 T01740174  RH  100%=      5-min Rain = 0
KDO1 241608Z 36006KT 17/17 A2998 RMK A01 T01740174  RH  100%=      5-min Rain = 0
KDO1 241609Z 36005KT 17/17 A2998 RMK A01 T01740174  RH  100%=      5-min Rain = 0
KDO1 241610Z 36005KT 17/17 A2998 RMK A01 T01740174  RH  100%=      5-min Rain = 0
KDO1 241611Z 01006KT 18/18 A2998 RMK A01 T01750175  RH  100%=      5-min Rain = 0
KDO1 241612Z 01006KT 17/18 A2998 RMK A01 T01740175  RH  100%=      5-min Rain = 0
KDO1 241613Z 00006KT 18/18 A2998 RMK A01 T01750175  RH  100%=      5-min Rain = 0
KDO1 241614Z 36006KT 17/18 A2998 RMK A01 T01740175  RH  100%=      5-min Rain = 0
KDO1 241615Z 36006KT 18/18 A2998 RMK A01 T01750175  RH  100%=      5-min Rain = 0
KDO1 241616Z 35007KT 17/17 A2998 RMK A01 T01740174  RH  100%=      5-min Rain = 0
KDO1 241617Z 35006KT 17/17 A2998 RMK A01 T01740174  RH  100%=      5-min Rain = 0
KDO1 241618Z 35007KT 18/18 A2998 RMK A01 T01750175  RH  100%=      5-min Rain = 0
KDO1 241619Z 35007KT 17/17 A2998 RMK A01 T01740174  RH  100%=      5-min Rain = 0
KDO1 241620Z 34007KT 17/17 A2998 RMK A01 T01740174  RH  100%=      5-min Rain = 0
KDO1 241621Z 35007KT 17/17 A2998 RMK A01 T01740174  RH  100%=      5-min Rain = 0
KDO1 241622Z 34007KT 17/17 A2998 RMK A01 T01740174  RH  100%=      5-min Rain = 0
KDO1 241623Z 34006KT 17/17 A2998 RMK A01 T01740174  RH  100%=      5-min Rain = 0
KDO1 241624Z 35006KT 17/17 A2998 RMK A01 T01740174  RH  100%=      5-min Rain = 0
KDO1 241625Z 35007KT 17/17 A2998 RMK A01 T01740174  RH  100%=      5-min Rain = 0
KDO1 241626Z 35006KT 17/17 A2998 RMK A01 T01740174  RH  100%=      5-min Rain = 0
KDO1 241627Z 35006KT 17/17 A2998 RMK A01 T01740174  RH  100%=      5-min Rain = 0
KDO1 241628Z 35007KT 17/17 A2998 RMK A01 T01740174  RH  100%=      5-min Rain = 0
KDO1 241629Z 35006KT 17/17 A2998 RMK A01 T01740174  RH  100%=      5-min Rain = 0
KDO1 241630Z 36006KT 17/17 A2998 RMK A01 T01740174  RH  100%=      5-min Rain = 0
KDO1 241631Z 35007KT 18/18 A2998 RMK A01 T01750175  RH  100%=      5-min Rain = 0
KDO1 241632Z 35007KT 17/17 A2998 RMK A01 T01740174  RH  100%=      5-min Rain = 0
KDO1 241633Z 35008KT 17/17 A2998 RMK A01 T01740174  RH  100%=      5-min Rain = 0
KDO1 241634Z 35006KT 17/18 A2998 RMK A01 T01740175  RH  100%=      5-min Rain = 0
KDO1 241635Z 35007KT 17/17 A2998 RMK A01 T01740174  RH  100%=      5-min Rain = 0
KDO1 241636Z 35007KT 17/18 A2998 RMK A01 T01740175  RH  100%=      5-min Rain = 0
KDO1 241637Z 35006KT 17/18 A2998 RMK A01 T01740175  RH  100%=      5-min Rain = 0
KDO1 241638Z 34005KT 18/18 A2998 RMK A01 T01750175  RH  100%=      5-min Rain = 0
KDO1 241639Z 35005KT 18/18 A2998 RMK A01 T01750175  RH  100%=      5-min Rain = 0
KDO1 241640Z 34006KT 18/18 A2998 RMK A01 T01750175  RH  100%=      5-min Rain = 0
KDO1 241641Z 35006KT 18/18 A2998 RMK A01 T01750175  RH  100%=      5-min Rain = 0
KDO1 241642Z 35007KT 18/18 A2998 RMK A01 T01750175  RH  100%=      5-min Rain = 0
KDO1 241643Z 35006KT 18/18 A2998 RMK A01 T01750175  RH  100%=      5-min Rain = 0
KDO1 241644Z 35008KT 18/18 A2998 RMK A01 T01750175  RH  100%=      5-min Rain = 0
KDO1 241645Z 35007KT 18/18 A2998 RMK A01 T01750175  RH  100%=      5-min Rain = 0
KDO1 241646Z 36006KT 18/18 A2998 RMK A01 T01750175  RH  100%=      5-min Rain = 0
KDO1 241647Z 36005KT 18/18 A2998 RMK A01 T01750175  RH  100%=      5-min Rain = 0
KDO1 241648Z 36005KT 18/18 A2998 RMK A01 T01760176  RH  100%=      5-min Rain = 0
KDO1 241649Z 36007KT 18/18 A2998 RMK A01 T01760176  RH  100%=      5-min Rain = 0
KDO1 241650Z 35006KT 18/18 A2998 RMK A01 T01760176  RH  100%=      5-min Rain = 0
KDO1 241651Z 35005KT 18/18 A2998 RMK A01 T01760176  RH  100%=      5-min Rain = 0
KDO1 241652Z 35007KT 18/18 A2998 RMK A01 T01760176  RH  100%=      5-min Rain = 0
KDO1 241653Z 00005KT 18/18 A2998 RMK A01 T01750176  RH  100%=      5-min Rain = 0
KDO1 241654Z 00005KT 18/18 A2998 RMK A01 T01750175  RH  100%=      5-min Rain = 0
KDO1 241655Z 36005KT 18/18 A2998 RMK A01 T01760176  RH  100%=      5-min Rain = 0
KDO1 241656Z 36004KT 18/18 A2998 RMK A01 T01760177  RH  100%=      5-min Rain = 0
KDO1 241657Z 36008KT 18/18 A2998 RMK A01 T01770177  RH  100%=      5-min Rain = 0
KDO1 241658Z 36007KT 18/18 A2998 RMK A01 T01760177  RH  100%=      5-min Rain = 0
KDO1 241659Z 36008KT 18/18 A2998 RMK A01 T01760176  RH  100%=      5-min Rain = 0
KDO1 241700Z 36007KT 18/18 A2998 RMK A01 T01760176  RH  100%=      5-min Rain = 0
KDO1 241701Z 35005KT 18/18 A2998 RMK A01 T01760176  RH  100%=      5-min Rain = 0
KDO1 241702Z 35007KT 18/18 A2998 RMK A01 T01770177  RH  100%=      5-min Rain = 0
KDO1 241703Z 36006KT 18/18 A2998 RMK A01 T01770177  RH  100%=      5-min Rain = 0
KDO1 241704Z 36006KT 18/18 A2998 RMK A01 T01780178  RH  100%=      5-min Rain = 0
KDO1 241705Z 36005KT 18/18 A2998 RMK A01 T01780178  RH  100%=      5-min Rain = 0
KDO1 241706Z 36005KT 18/18 A2998 RMK A01 T01790179  RH  100%=      5-min Rain = 0
KDO1 241707Z 36004KT 18/18 A2998 RMK A01 T01790179  RH  100%=      5-min Rain = 0
KDO1 241708Z 36006KT 18/18 A2998 RMK A01 T01790179  RH  100%=      5-min Rain = 0
KDO1 241709Z 00006KT 18/18 A2998 RMK A01 T01790179  RH  100%=      5-min Rain = 0
KDO1 241710Z 35006KT 18/18 A2998 RMK A01 T01790179  RH  100%=      5-min Rain = 0
KDO1 241711Z 36005KT 18/18 A2998 RMK A01 T01790179  RH  100%=      5-min Rain = 0
KDO1 241712Z 35006KT 18/18 A2998 RMK A01 T01790179  RH  100%=      5-min Rain = 0
KDO1 241713Z 01004KT 18/18 A2998 RMK A01 T01790179  RH  100%=      5-min Rain = 0
KDO1 241714Z 01006KT 18/18 A2998 RMK A01 T01800180  RH  100%=      5-min Rain = 0
KDO1 241715Z 01006KT 18/18 A2998 RMK A01 T01800180  RH  100%=      5-min Rain = 0
KDO1 241716Z 01004KT 18/18 A2998 RMK A01 T01790179  RH  100%=      5-min Rain = 0
KDO1 241717Z 01004KT 18/18 A2998 RMK A01 T01800180  RH  100%=      5-min Rain = 0
KDO1 241718Z 01006KT 18/18 A2998 RMK A01 T01800180  RH  100%=      5-min Rain = 0
KDO1 241719Z 01006KT 18/18 A2998 RMK A01 T01800180  RH  100%=      5-min Rain = 0
KDO1 241720Z 01006KT 18/18 A2998 RMK A01 T01800180  RH  100%=      5-min Rain = 0
KDO1 241721Z 01006KT 18/18 A2998 RMK A01 T01800180  RH  100%=      5-min Rain = 0
KDO1 241722Z 01007KT 18/18 A2998 RMK A01 T01800180  RH  100%=      5-min Rain = 0
KDO1 241723Z 01005KT 18/18 A2998 RMK A01 T01800180  RH  100%=      5-min Rain = 0
KDO1 241724Z 02004KT 18/18 A2998 RMK A01 T01800180  RH  100%=      5-min Rain = 0
KDO1 241725Z 01003KT 18/18 A2998 RMK A01 T01810182  RH  100%=      5-min Rain = 0
KDO1 241726Z 02004KT 18/18 A2998 RMK A01 T01810182  RH  100%=      5-min Rain = 0
KDO1 241727Z 02004KT 18/18 A2998 RMK A01 T01820182  RH  100%=      5-min Rain = 0
KDO1 241728Z 01004KT 18/18 A2998 RMK A01 T01820182  RH  100%=      5-min Rain = 0
KDO1 241729Z 00004KT 18/18 A2998 RMK A01 T01830183  RH  100%=      5-min Rain = 0
KDO1 241730Z 01005KT 18/18 A2998 RMK A01 T01830183  RH  100%=      5-min Rain = 0
KDO1 241731Z 00005KT 18/18 A2998 RMK A01 T01830183  RH  100%=      5-min Rain = 0
KDO1 241732Z 00006KT 18/18 A2998 RMK A01 T01830183  RH  100%=      5-min Rain = 0
KDO1 241733Z 01006KT 18/18 A2998 RMK A01 T01830183  RH  100%=      5-min Rain = 0
KDO1 241734Z 00005KT 18/18 A2998 RMK A01 T01830183  RH  100%=      5-min Rain = 0
KDO1 241735Z 00005KT 18/18 A2998 RMK A01 T01830183  RH  100%=      5-min Rain = 0
KDO1 241736Z 36005KT 18/18 A2998 RMK A01 T01840184  RH  100%=      5-min Rain = 0
KDO1 241737Z 00006KT 19/19 A2998 RMK A01 T01860186  RH  100%=      5-min Rain = 0
KDO1 241738Z 36007KT 19/19 A2998 RMK A01 T01860186  RH  100%=      5-min Rain = 0
KDO1 241739Z 00006KT 19/19 A2998 RMK A01 T01870187  RH  100%=      5-min Rain = 0
KDO1 241740Z 00006KT 19/19 A2998 RMK A01 T01880188  RH  100%=      5-min Rain = 0
KDO1 241741Z 34006KT 19/19 A2998 RMK A01 T01890189  RH  100%=      5-min Rain = 0
KDO1 241742Z 35006KT 19/19 A2998 RMK A01 T01890189  RH  100%=      5-min Rain = 0
KDO1 241743Z 35006KT 19/19 A2998 RMK A01 T01900190  RH  100%=      5-min Rain = 0
KDO1 241744Z 35008KT 19/19 A2998 RMK A01 T01890189  RH  100%=      5-min Rain = 0
KDO1 241745Z 35008KT 19/19 A2998 RMK A01 T01890188  RH  100%=      5-min Rain = 0
KDO1 241746Z 36005KT 19/19 A2998 RMK A01 T01880188  RH  099%=      5-min Rain = 0
KDO1 241747Z 00004KT 19/19 A2998 RMK A01 T01890189  RH  100%=      5-min Rain = 0
KDO1 241748Z 01007KT 19/19 A2998 RMK A01 T01910191  RH  100%=      5-min Rain = 0
KDO1 241749Z 00007KT 19/19 A2998 RMK A01 T01920190  RH  099%=      5-min Rain = 0
KDO1 241750Z 01006KT 19/19 A2998 RMK A01 T01930190  RH  098%=      5-min Rain = 0
KDO1 241751Z 36005KT 19/19 A2998 RMK A01 T01930190  RH  098%=      5-min Rain = 0
KDO1 241752Z 00008KT 19/19 A2998 RMK A01 T01940192  RH  099%=      5-min Rain = 0
KDO1 241753Z 36007KT 20/19 A2998 RMK A01 T01950190  RH  097%=      5-min Rain = 0
KDO1 241754Z 00006KT 20/19 A2998 RMK A01 T01950191  RH  097%=      5-min Rain = 0
KDO1 241755Z 36005KT 20/19 A2998 RMK A01 T01950194  RH  099%=      5-min Rain = 0
KDO1 241756Z 00005KT 20/20 A2998 RMK A01 T01970195  RH  099%=      5-min Rain = 0
KDO1 241757Z 01006KT 20/20 A2998 RMK A01 T01990198  RH  100%=      5-min Rain = 0
KDO1 241758Z 36005KT 20/20 A2998 RMK A01 T02000196  RH  098%=      5-min Rain = 0
KDO1 241759Z 01005KT 20/20 A2998 RMK A01 T02000196  RH  097%=      5-min Rain = 0
KDO1 241800Z 02005KT 20/19 A2998 RMK A01 T01990193  RH  096%=      5-min Rain = 0
KDO1 241801Z 01007KT 20/19 A2998 RMK A01 T01980190  RH  095%=      5-min Rain = 0
KDO1 241802Z 01007KT 20/19 A2998 RMK A01 T01960188  RH  096%=      5-min Rain = 0
KDO1 241803Z 01007KT 19/19 A2998 RMK A01 T01940189  RH  097%=      5-min Rain = 0
KDO1 241804Z 01007KT 19/19 A2998 RMK A01 T01930189  RH  097%=      5-min Rain = 0
KDO1 241805Z 01007KT 19/19 A2998 RMK A01 T01920190  RH  098%=      5-min Rain = 0
KDO1 241806Z 01007KT 19/19 A2997 RMK A01 T01920191  RH  099%=      5-min Rain = 0
KDO1 241807Z 00007KT 19/19 A2997 RMK A01 T01920190  RH  098%=      5-min Rain = 0
KDO1 241808Z 35004KT 19/19 A2997 RMK A01 T01930193  RH  100%=      5-min Rain = 0
KDO1 241809Z 36006KT 19/19 A2997 RMK A01 T01940194  RH  100%=      5-min Rain = 0
KDO1 241810Z 36006KT 20/19 A2997 RMK A01 T01950193  RH  099%=      5-min Rain = 0
KDO1 241811Z 36006KT 20/19 A2997 RMK A01 T01950192  RH  098%=      5-min Rain = 0
KDO1 241812Z 35005KT 20/19 A2997 RMK A01 T01950191  RH  098%=      5-min Rain = 0
KDO1 241813Z 36007KT 20/19 A2997 RMK A01 T01950192  RH  098%=      5-min Rain = 0
KDO1 241814Z 36005KT 20/19 A2997 RMK A01 T01950193  RH  099%=      5-min Rain = 0
KDO1 241815Z 01004G9KT 20/19 A2997 RMK A01 T01950194  RH  100%=      5-min Rain = 0
KDO1 241816Z 01007KT 20/19 A2997 RMK A01 T01950191  RH  098%=      5-min Rain = 0
KDO1 241817Z 01007KT 20/19 A2997 RMK A01 T01950191  RH  098%=      5-min Rain = 0
KDO1 241818Z 02006KT 19/19 A2997 RMK A01 T01940190  RH  098%=      5-min Rain = 0
KDO1 241819Z 01005KT 19/19 A2997 RMK A01 T01940193  RH  099%=      5-min Rain = 0
KDO1 241820Z 34006KT 19/19 A2997 RMK A01 T01940193  RH  099%=      5-min Rain = 0
KDO1 241821Z 00006KT 19/19 A2997 RMK A01 T01940194  RH  100%=      5-min Rain = 0
KDO1 241822Z 00008KT 19/19 A2997 RMK A01 T01940192  RH  099%=      5-min Rain = 0
KDO1 241823Z 01007KT 19/19 A2997 RMK A01 T01940191  RH  099%=      5-min Rain = 0
KDO1 241824Z 36007KT 19/19 A2997 RMK A01 T01930191  RH  099%=      5-min Rain = 0
KDO1 241825Z 35007KT 19/19 A2997 RMK A01 T01910190  RH  099%=      5-min Rain = 0
KDO1 241826Z 36005KT 19/19 A2997 RMK A01 T01910191  RH  100%=      5-min Rain = 0
KDO1 241827Z 00004KT 19/19 A2997 RMK A01 T01910191  RH  100%=      5-min Rain = 0
KDO1 241828Z 00007KT 19/19 A2997 RMK A01 T01910191  RH  100%=      5-min Rain = 0
KDO1 241829Z 01006KT 19/19 A2997 RMK A01 T01900190  RH  100%=      5-min Rain = 0
KDO1 241830Z 00005KT 19/19 A2997 RMK A01 T01890189  RH  100%=      5-min Rain = 0.01
KDO1 241831Z 35006KT 19/19 A2997 RMK A01 T01890189  RH  100%=      5-min Rain = 0
KDO1 241832Z 36008KT 19/19 A2997 RMK A01 T01890189  RH  100%=      5-min Rain = 0
KDO1 241833Z 36007KT 19/19 A2997 RMK A01 T01890189  RH  100%=      5-min Rain = 0
KDO1 241834Z 36006KT 19/19 A2997 RMK A01 T01890189  RH  100%=      5-min Rain = 0
KDO1 241835Z 00006KT 19/19 A2997 RMK A01 T01900190  RH  100%=      5-min Rain = 0
KDO1 241836Z 00006KT 19/19 A2997 RMK A01 T01900190  RH  100%=      5-min Rain = 0
KDO1 241837Z 00005KT 19/19 A2997 RMK A01 T01910191  RH  100%=      5-min Rain = 0
KDO1 241838Z 00007KT 19/19 A2997 RMK A01 T01910192  RH  100%=      5-min Rain = 0
KDO1 241839Z 01005KT 19/19 A2997 RMK A01 T01910191  RH  100%=      5-min Rain = 0
KDO1 241840Z 01006KT 19/19 A2997 RMK A01 T01920192  RH  100%=      5-min Rain = 0
KDO1 241841Z 01005KT 19/19 A2997 RMK A01 T01910191  RH  100%=      5-min Rain = 0
KDO1 241842Z 01004KT 19/19 A2997 RMK A01 T01920192  RH  100%=      5-min Rain = 0
KDO1 241843Z 00005KT 19/19 A2997 RMK A01 T01910191  RH  100%=      5-min Rain = 0
KDO1 241844Z 01004KT 19/19 A2997 RMK A01 T01910191  RH  100%=      5-min Rain = 0
KDO1 241845Z 00005KT 19/19 A2997 RMK A01 T01910191  RH  100%=      5-min Rain = 0
KDO1 241846Z 01005KT 19/19 A2997 RMK A01 T01910191  RH  100%=      5-min Rain = 0
KDO1 241847Z 00005KT 19/19 A2997 RMK A01 T01910192  RH  100%=      5-min Rain = 0
KDO1 241848Z 36005KT 19/19 A2997 RMK A01 T01910191  RH  100%=      5-min Rain = 0
KDO1 241849Z 36003KT 19/19 A2996 RMK A01 T01910191  RH  100%=      5-min Rain = 0
KDO1 241850Z 34004KT 19/19 A2996 RMK A01 T01920192  RH  100%=      5-min Rain = 0
KDO1 241851Z 35005KT 19/19 A2996 RMK A01 T01920192  RH  100%=      5-min Rain = 0
KDO1 241852Z 35004KT 19/19 A2996 RMK A01 T01920192  RH  100%=      5-min Rain = 0
KDO1 241853Z 00005KT 19/19 A2996 RMK A01 T01920192  RH  100%=      5-min Rain = 0
KDO1 241854Z 01005KT 19/19 A2996 RMK A01 T01920192  RH  100%=      5-min Rain = 0
KDO1 241855Z 01006KT 19/19 A2996 RMK A01 T01910191  RH  100%=      5-min Rain = 0
KDO1 241856Z 01006KT 19/19 A2996 RMK A01 T01900190  RH  100%=      5-min Rain = 0
KDO1 241857Z 36005KT 19/19 A2996 RMK A01 T01900190  RH  100%=      5-min Rain = 0
KDO1 241858Z 00006KT 19/19 A2996 RMK A01 T01900190  RH  100%=      5-min Rain = 0
KDO1 241859Z 36006KT 19/19 A2996 RMK A01 T01900190  RH  100%=      5-min Rain = 0
KDO1 241900Z 35005KT 19/19 A2996 RMK A01 T01900190  RH  100%=      5-min Rain = 0
KDO1 241901Z 35006KT 19/19 A2996 RMK A01 T01900190  RH  100%=      5-min Rain = 0
KDO1 241902Z 00007KT 19/19 A2995 RMK A01 T01910191  RH  100%=      5-min Rain = 0
KDO1 241903Z 36007KT 19/19 A2995 RMK A01 T01910191  RH  100%=      5-min Rain = 0
KDO1 241904Z 35005KT 19/19 A2995 RMK A01 T01920193  RH  100%=      5-min Rain = 0
KDO1 241905Z 35006KT 19/19 A2995 RMK A01 T01940194  RH  100%=      5-min Rain = 0
KDO1 241906Z 00006KT 20/20 A2995 RMK A01 T01950195  RH  100%=      5-min Rain = 0
KDO1 241907Z 36007KT 20/20 A2996 RMK A01 T01960196  RH  100%=      5-min Rain = 0
KDO1 241908Z 00005KT 20/20 A2996 RMK A01 T01950196  RH  100%=      5-min Rain = 0
KDO1 241909Z 00006KT 20/20 A2996 RMK A01 T01950196  RH  100%=      5-min Rain = 0
KDO1 241910Z 36006KT 20/20 A2995 RMK A01 T01960196  RH  100%=      5-min Rain = 0
KDO1 241911Z 35005KT 20/20 A2995 RMK A01 T01960196  RH  100%=      5-min Rain = 0
KDO1 241912Z 35007KT 20/20 A2995 RMK A01 T01970197  RH  100%=      5-min Rain = 0
KDO1 241913Z 00005KT 20/20 A2995 RMK A01 T01970197  RH  100%=      5-min Rain = 0
KDO1 241914Z 35005KT 20/20 A2995 RMK A01 T01980198  RH  100%=      5-min Rain = 0
KDO1 241915Z 01005KT 20/20 A2995 RMK A01 T01980198  RH  100%=      5-min Rain = 0
KDO1 241916Z 36006KT 20/20 A2995 RMK A01 T01970197  RH  100%=      5-min Rain = 0
KDO1 241917Z 00007KT 20/20 A2995 RMK A01 T01960196  RH  100%=      5-min Rain = 0
KDO1 241918Z 00006KT 20/20 A2995 RMK A01 T01950195  RH  100%=      5-min Rain = 0
KDO1 241919Z 01005KT 20/20 A2995 RMK A01 T01950195  RH  100%=      5-min Rain = 0
KDO1 241920Z 02005KT 19/20 A2995 RMK A01 T01940195  RH  100%=      5-min Rain = 0
KDO1 241921Z 01006KT 19/19 A2995 RMK A01 T01940194  RH  100%=      5-min Rain = 0
KDO1 241922Z 01006KT 19/19 A2996 RMK A01 T01930193  RH  100%=      5-min Rain = 0
KDO1 241923Z 01006KT 19/19 A2996 RMK A01 T01930193  RH  100%=      5-min Rain = 0
KDO1 241924Z 01006KT 19/19 A2995 RMK A01 T01930193  RH  100%=      5-min Rain = 0
KDO1 241925Z 00007KT 19/19 A2995 RMK A01 T01920192  RH  100%=      5-min Rain = 0
KDO1 241926Z 00006KT 19/19 A2995 RMK A01 T01920192  RH  100%=      5-min Rain = 0
KDO1 241927Z 36006KT 19/19 A2995 RMK A01 T01920192  RH  100%=      5-min Rain = 0
KDO1 241928Z 36005KT 19/19 A2995 RMK A01 T01920192  RH  100%=      5-min Rain = 0
KDO1 241929Z 36006KT 19/19 A2995 RMK A01 T01920192  RH  100%=      5-min Rain = 0.01
KDO1 241930Z 01005KT 19/19 A2995 RMK A01 T01920192  RH  100%=      5-min Rain = 0
KDO1 241931Z 01005KT 19/19 A2995 RMK A01 T01910191  RH  100%=      5-min Rain = 0
KDO1 241932Z 02003KT 19/19 A2995 RMK A01 T01910191  RH  100%=      5-min Rain = 0
KDO1 241933Z 02004KT 19/19 A2996 RMK A01 T01910191  RH  100%=      5-min Rain = 0
KDO1 241934Z 03003KT 19/19 A2996 RMK A01 T01910191  RH  100%=      5-min Rain = 0
KDO1 241935Z 03004KT 19/19 A2996 RMK A01 T01900191  RH  100%=      5-min Rain = 0.03
KDO1 241936Z 01004KT 19/19 A2996 RMK A01 T01900191  RH  100%=      5-min Rain = 0.02
KDO1 241937Z 36004KT 19/19 A2996 RMK A01 T01910191  RH  100%=      5-min Rain = 0
KDO1 241938Z 36004KT 19/19 A2996 RMK A01 T01900190  RH  100%=      5-min Rain = 0.01
KDO1 241939Z 00004KT 19/19 A2995 RMK A01 T01900190  RH  100%=      5-min Rain = 0
KDO1 241940Z 00005KT 19/19 A2995 RMK A01 T01910191  RH  100%=      5-min Rain = 0
KDO1 241941Z 00003KT 19/19 A2995 RMK A01 T01920192  RH  100%=      5-min Rain = 0
KDO1 241942Z 01004KT 19/19 A2995 RMK A01 T01930193  RH  100%=      5-min Rain = 0
KDO1 241943Z 03003KT 19/19 A2996 RMK A01 T01930193  RH  100%=      5-min Rain = 0
KDO1 241944Z 02003KT 19/19 A2996 RMK A01 T01930194  RH  100%=      5-min Rain = 0
KDO1 241945Z 02004KT 19/19 A2996 RMK A01 T01940194  RH  100%=      5-min Rain = 0
KDO1 241946Z 02005KT 19/19 A2996 RMK A01 T01940194  RH  100%=      5-min Rain = 0
KDO1 241947Z 02005KT 19/19 A2995 RMK A01 T01930194  RH  100%=      5-min Rain = 0
KDO1 241948Z 02005KT 19/19 A2995 RMK A01 T01930193  RH  100%=      5-min Rain = 0
KDO1 241949Z 03005KT 19/19 A2995 RMK A01 T01930193  RH  100%=      5-min Rain = 0
KDO1 241950Z 03006KT 19/19 A2995 RMK A01 T01940194  RH  100%=      5-min Rain = 0
KDO1 241951Z 03007KT 20/20 A2995 RMK A01 T01950195  RH  100%=      5-min Rain = 0
KDO1 241952Z 02006KT 20/20 A2995 RMK A01 T01950195  RH  100%=      5-min Rain = 0
KDO1 241953Z 03005KT 20/20 A2995 RMK A01 T01950195  RH  100%=      5-min Rain = 0
KDO1 241954Z 03004KT 20/20 A2995 RMK A01 T01950195  RH  100%=      5-min Rain = 0
KDO1 241955Z 02004KT 20/20 A2995 RMK A01 T01950195  RH  100%=      5-min Rain = 0
KDO1 241956Z 02004KT 20/20 A2995 RMK A01 T01960196  RH  100%=      5-min Rain = 0
KDO1 241957Z 02005KT 20/20 A2995 RMK A01 T01950196  RH  100%=      5-min Rain = 0
KDO1 241958Z 02005KT 20/20 A2995 RMK A01 T01950195  RH  100%=      5-min Rain = 0
KDO1 241959Z 03006KT 19/19 A2995 RMK A01 T01940194  RH  100%=      5-min Rain = 0
KDO1 242000Z 03006KT 19/19 A2995 RMK A01 T01940194  RH  100%=      5-min Rain = 0
KDO1 242001Z 03004KT 19/19 A2994 RMK A01 T01940194  RH  100%=      5-min Rain = 0
KDO1 242002Z 02005KT 19/19 A2994 RMK A01 T01940194  RH  100%=      5-min Rain = 0
KDO1 242003Z 02006KT 20/20 A2994 RMK A01 T01950195  RH  100%=      5-min Rain = 0
KDO1 242004Z 02005KT 20/20 A2994 RMK A01 T01950195  RH  100%=      5-min Rain = 0
KDO1 242005Z 02003KT 19/20 A2994 RMK A01 T01940195  RH  100%=      5-min Rain = 0
KDO1 242006Z 02004KT 20/20 A2994 RMK A01 T01950195  RH  100%=      5-min Rain = 0
KDO1 242007Z 02006KT 20/20 A2994 RMK A01 T01950196  RH  100%=      5-min Rain = 0
KDO1 242008Z 03007KT 20/20 A2994 RMK A01 T01950196  RH  100%=      5-min Rain = 0
KDO1 242009Z 02006KT 20/20 A2994 RMK A01 T01950195  RH  100%=      5-min Rain = 0
KDO1 242010Z 02005KT 20/20 A2994 RMK A01 T01950195  RH  100%=      5-min Rain = 0
KDO1 242011Z 01006KT 20/20 A2994 RMK A01 T01950195  RH  100%=      5-min Rain = 0
KDO1 242012Z 01006KT 20/20 A2994 RMK A01 T01950195  RH  100%=      5-min Rain = 0
KDO1 242013Z 35003KT 20/20 A2994 RMK A01 T01950195  RH  100%=      5-min Rain = 0
KDO1 242014Z 34004KT 20/20 A2995 RMK A01 T01950195  RH  100%=      5-min Rain = 0
KDO1 242015Z 35004KT 20/20 A2995 RMK A01 T01950195  RH  100%=      5-min Rain = 0
KDO1 242016Z 35005KT 20/20 A2995 RMK A01 T01950195  RH  100%=      5-min Rain = 0
KDO1 242017Z 35003KT 20/20 A2995 RMK A01 T01950195  RH  100%=      5-min Rain = 0
KDO1 242018Z 00003KT 19/19 A2995 RMK A01 T01940194  RH  100%=      5-min Rain = 0
KDO1 242019Z 00004KT 19/19 A2995 RMK A01 T01940194  RH  100%=      5-min Rain = 0
KDO1 242020Z 00005KT 19/19 A2995 RMK A01 T01940194  RH  100%=      5-min Rain = 0
KDO1 242021Z 00004KT 19/20 A2995 RMK A01 T01940195  RH  100%=      5-min Rain = 0
KDO1 242022Z 34002KT 19/20 A2995 RMK A01 T01940195  RH  100%=      5-min Rain = 0
KDO1 242023Z 34003KT 19/19 A2996 RMK A01 T01940194  RH  100%=      5-min Rain = 0
KDO1 242024Z 34005KT 19/19 A2996 RMK A01 T01940194  RH  100%=      5-min Rain = 0
KDO1 242025Z 34005KT 19/19 A2996 RMK A01 T01940194  RH  100%=      5-min Rain = 0
KDO1 242026Z 35005KT 19/19 A2996 RMK A01 T01940194  RH  100%=      5-min Rain = 0
KDO1 242027Z 34005KT 19/19 A2996 RMK A01 T01940194  RH  100%=      5-min Rain = 0
KDO1 242028Z 35005KT 19/19 A2996 RMK A01 T01940194  RH  100%=      5-min Rain = 0
KDO1 242029Z 35004KT 19/19 A2996 RMK A01 T01940194  RH  100%=      5-min Rain = 0
KDO1 242030Z 35004KT 19/19 A2995 RMK A01 T01940194  RH  100%=      5-min Rain = 0
KDO1 242031Z 00004KT 19/19 A2995 RMK A01 T01940194  RH  100%=      5-min Rain = 0
KDO1 242032Z 00004KT 19/19 A2995 RMK A01 T01940194  RH  100%=      5-min Rain = 0
KDO1 242033Z 36005KT 19/19 A2994 RMK A01 T01940194  RH  100%=      5-min Rain = 0
KDO1 242034Z 01004KT 19/19 A2994 RMK A01 T01940194  RH  100%=      5-min Rain = 0
KDO1 242035Z 01004KT 19/19 A2994 RMK A01 T01940194  RH  100%=      5-min Rain = 0
KDO1 242036Z 02004KT 19/19 A2995 RMK A01 T01940194  RH  100%=      5-min Rain = 0
KDO1 242037Z 05002KT 19/19 A2996 RMK A01 T01940194  RH  100%=      5-min Rain = 0
KDO1 242038Z 06001KT 19/19 A2996 RMK A01 T01940194  RH  100%=      5-min Rain = 0
KDO1 242039Z 36000KT 19/19 A2996 RMK A01 T01940194  RH  100%=      5-min Rain = 0
KDO1 242040Z 01002KT 19/19 A2996 RMK A01 T01940194  RH  100%=      5-min Rain = 0
KDO1 242041Z 02002KT 19/19 A2996 RMK A01 T01940194  RH  100%=      5-min Rain = 0
KDO1 242042Z 02004KT 19/19 A2995 RMK A01 T01940194  RH  100%=      5-min Rain = 0
KDO1 242043Z 04005KT 19/19 A2995 RMK A01 T01940194  RH  100%=      5-min Rain = 0
KDO1 242044Z 05003KT 19/19 A2995 RMK A01 T01940194  RH  100%=      5-min Rain = 0
KDO1 242045Z 05003KT 19/19 A2995 RMK A01 T01940194  RH  100%=      5-min Rain = 0
KDO1 242046Z 02003KT 19/19 A2995 RMK A01 T01940194  RH  100%=      5-min Rain = 0
KDO1 242047Z 01004KT 19/19 A2995 RMK A01 T01930193  RH  100%=      5-min Rain = 0
KDO1 242048Z 35003KT 19/19 A2995 RMK A01 T01930193  RH  100%=      5-min Rain = 0
KDO1 242049Z 34003KT 19/19 A2995 RMK A01 T01930193  RH  100%=      5-min Rain = 0
KDO1 242050Z 34004KT 19/19 A2995 RMK A01 T01930193  RH  100%=      5-min Rain = 0
KDO1 242051Z 32004KT 19/19 A2995 RMK A01 T01930194  RH  100%=      5-min Rain = 0
KDO1 242052Z 32004KT 19/19 A2996 RMK A01 T01930193  RH  100%=      5-min Rain = 0
KDO1 242053Z 32005KT 19/19 A2995 RMK A01 T01930194  RH  100%=      5-min Rain = 0
KDO1 242054Z 32006KT 19/19 A2995 RMK A01 T01940194  RH  100%=      5-min Rain = 0
KDO1 242055Z 33006KT 19/19 A2995 RMK A01 T01940194  RH  100%=      5-min Rain = 0
KDO1 242056Z 33004KT 19/19 A2995 RMK A01 T01940194  RH  100%=      5-min Rain = 0
KDO1 242057Z 35005KT 19/19 A2995 RMK A01 T01940194  RH  100%=      5-min Rain = 0
KDO1 242058Z 00004KT 19/19 A2995 RMK A01 T01940194  RH  100%=      5-min Rain = 0
KDO1 242059Z 35004KT 19/19 A2995 RMK A01 T01940194  RH  100%=      5-min Rain = 0
KDO1 242100Z 01003KT 19/19 A2995 RMK A01 T01930193  RH  100%=      5-min Rain = 0
KDO1 242101Z 02005KT 19/19 A2994 RMK A01 T01930193  RH  100%=      5-min Rain = 0
KDO1 242102Z 04005KT 19/19 A2994 RMK A01 T01930193  RH  100%=      5-min Rain = 0
KDO1 242103Z 05006KT 19/19 A2994 RMK A01 T01920193  RH  100%=      5-min Rain = 0
KDO1 242104Z 05004KT 19/19 A2994 RMK A01 T01920193  RH  100%=      5-min Rain = 0
KDO1 242105Z 05004KT 19/19 A2994 RMK A01 T01920192  RH  100%=      5-min Rain = 0
KDO1 242106Z 05006KT 19/19 A2994 RMK A01 T01920192  RH  100%=      5-min Rain = 0
KDO1 242107Z 05004KT 19/19 A2994 RMK A01 T01920192  RH  100%=      5-min Rain = 0
KDO1 242108Z 07003KT 19/19 A2994 RMK A01 T01920192  RH  100%=      5-min Rain = 0
KDO1 242109Z 04003KT 19/19 A2995 RMK A01 T01910192  RH  100%=      5-min Rain = 0
KDO1 242110Z 03005KT 19/19 A2994 RMK A01 T01910191  RH  100%=      5-min Rain = 0
KDO1 242111Z 02006KT 19/19 A2994 RMK A01 T01910191  RH  100%=      5-min Rain = 0
KDO1 242112Z 35005KT 19/19 A2994 RMK A01 T01920192  RH  100%=      5-min Rain = 0
KDO1 242113Z 04005KT 19/19 A2994 RMK A01 T01910192  RH  100%=      5-min Rain = 0
KDO1 242114Z 06006KT 19/19 A2993 RMK A01 T01910191  RH  100%=      5-min Rain = 0
KDO1 242115Z 08006KT 19/19 A2994 RMK A01 T01910192  RH  100%=      5-min Rain = 0
KDO1 242116Z 09004KT 19/19 A2994 RMK A01 T01910191  RH  100%=      5-min Rain = 0
KDO1 242117Z 13005KT 19/19 A2995 RMK A01 T01910191  RH  100%=      5-min Rain = 0
KDO1 242118Z 12005KT 19/19 A2995 RMK A01 T01910192  RH  100%=      5-min Rain = 0
KDO1 242119Z 11005KT 19/19 A2995 RMK A01 T01910192  RH  100%=      5-min Rain = 0
KDO1 242120Z 10006KT 19/19 A2995 RMK A01 T01910191  RH  100%=      5-min Rain = 0
KDO1 242121Z 08008KT 19/19 A2994 RMK A01 T01910191  RH  100%=      5-min Rain = 0
KDO1 242122Z 08009KT 19/19 A2993 RMK A01 T01910191  RH  100%=      5-min Rain = 0
KDO1 242123Z 12010KT 19/19 A2993 RMK A01 T01910191  RH  100%=      5-min Rain = 0
KDO1 242124Z 09014KT 19/19 A2992 RMK A01 T01900191  RH  100%=      5-min Rain = 0
KDO1 242125Z 11013KT 19/19 A2992 RMK A01 T01900190  RH  100%=      5-min Rain = 0
KDO1 242126Z 08012KT 19/19 A299 RMK A01 T01900190  RH  100%=      5-min Rain = 0
KDO1 242127Z 14013G19KT 19/19 A299 RMK A01 T01900190  RH  100%=      5-min Rain = 0
KDO1 242128Z 15013KT 20/20 A2991 RMK A01 T01960196  RH  100%=      5-min Rain = 0
KDO1 242129Z 10007KT 20/20 A2991 RMK A01 T02000201  RH  100%=      5-min Rain = 0
KDO1 242130Z 11009KT 20/20 A2991 RMK A01 T02020202  RH  100%=      5-min Rain = 0
KDO1 242131Z 11011KT 20/20 A299 RMK A01 T02020202  RH  100%=      5-min Rain = 0
KDO1 242132Z 14012G19KT 20/20 A2991 RMK A01 T02020203  RH  100%=      5-min Rain = 0
KDO1 242133Z 11013G18KT 21/21 A299 RMK A01 T02060206  RH  100%=      5-min Rain = 0
KDO1 242134Z 12016KT 21/21 A299 RMK A01 T02100210  RH  100%=      5-min Rain = 0
KDO1 242135Z 14014KT 21/21 A2991 RMK A01 T02100210  RH  100%=      5-min Rain = 0
KDO1 242136Z 12016KT 21/21 A299 RMK A01 T02090209  RH  100%=      5-min Rain = 0
KDO1 242137Z 13017KT 21/21 A2989 RMK A01 T02100210  RH  100%=      5-min Rain = 0
KDO1 242138Z 13015KT 21/21 A2989 RMK A01 T02120212  RH  100%=      5-min Rain = 0
KDO1 242139Z 12013KT 21/21 A2989 RMK A01 T02120212  RH  100%=      5-min Rain = 0
KDO1 242140Z 11014KT 21/21 A2989 RMK A01 T02120212  RH  100%=      5-min Rain = 0.01
KDO1 242141Z 10016KT 21/21 A2988 RMK A01 T02100210  RH  100%=      5-min Rain = 0
KDO1 242142Z 12007G14KT 21/21 A2988 RMK A01 T02090209  RH  100%=      5-min Rain = 0
KDO1 242143Z 16013G20KT 21/21 A2989 RMK A01 T02080209  RH  100%=      5-min Rain = 0
KDO1 242144Z 13016KT 21/21 A2988 RMK A01 T02090209  RH  100%=      5-min Rain = 0
KDO1 242145Z 12016KT 21/21 A2988 RMK A01 T02110211  RH  100%=      5-min Rain = 0
KDO1 242146Z 11014KT 21/21 A2988 RMK A01 T02120213  RH  100%=      5-min Rain = 0
KDO1 242147Z 12014G19KT 21/21 A2989 RMK A01 T02130213  RH  100%=      5-min Rain = 0
KDO1 242148Z 12016KT 21/21 A2989 RMK A01 T02130213  RH  100%=      5-min Rain = 0
KDO1 242149Z 12015KT 21/21 A2989 RMK A01 T02120212  RH  100%=      5-min Rain = 0
KDO1 242150Z 12014KT 21/21 A2989 RMK A01 T02110211  RH  100%=      5-min Rain = 0
KDO1 242151Z 11014KT 21/21 A2989 RMK A01 T02110211  RH  100%=      5-min Rain = 0
KDO1 242152Z 12013KT 21/21 A299 RMK A01 T02100210  RH  100%=      5-min Rain = 0
KDO1 242153Z 12010KT 21/21 A2991 RMK A01 T02090209  RH  100%=      5-min Rain = 0
KDO1 242154Z 11012KT 21/21 A299 RMK A01 T02080208  RH  100%=      5-min Rain = 0
KDO1 242155Z 10011KT 21/21 A2989 RMK A01 T02070207  RH  100%=      5-min Rain = 0
KDO1 242156Z 09014KT 21/21 A2989 RMK A01 T02050205  RH  100%=      5-min Rain = 0
KDO1 242157Z 11013KT 20/20 A2989 RMK A01 T02040204  RH  100%=      5-min Rain = 0
KDO1 242158Z 12011KT 20/20 A299 RMK A01 T02030203  RH  100%=      5-min Rain = 0
KDO1 242159Z 14010KT 20/20 A2991 RMK A01 T02020203  RH  100%=      5-min Rain = 0
KDO1 242200Z 13011KT 20/20 A2992 RMK A01 T02020202  RH  100%=      5-min Rain = 0
KDO1 242201Z 12012KT 20/20 A2991 RMK A01 T02020202  RH  100%=      5-min Rain = 0
KDO1 242202Z 11012KT 20/20 A299 RMK A01 T02020202  RH  100%=      5-min Rain = 0
KDO1 242203Z 10013KT 20/20 A2989 RMK A01 T02020202  RH  100%=      5-min Rain = 0
KDO1 242204Z 10015KT 20/20 A2988 RMK A01 T02020202  RH  100%=      5-min Rain = 0
KDO1 242205Z 09015KT 20/20 A2987 RMK A01 T02020202  RH  100%=      5-min Rain = 0
KDO1 242206Z 10016KT 20/20 A2986 RMK A01 T02030203  RH  100%=      5-min Rain = 0
KDO1 242207Z 11016KT 20/20 A2987 RMK A01 T02020202  RH  100%=      5-min Rain = 0
KDO1 242208Z 11017G22KT 20/20 A2985 RMK A01 T02020202  RH  100%=      5-min Rain = 0
KDO1 242209Z 11020KT 20/20 A2983 RMK A01 T02010201  RH  100%=      5-min Rain = 0
KDO1 242210Z 11022G27KT 20/20 A2983 RMK A01 T02020202  RH  100%=      5-min Rain = 0
KDO1 242211Z 12023G28KT 20/20 A2983 RMK A01 T02030203  RH  100%=      5-min Rain = 0
KDO1 242212Z 11026KT 20/20 A298 RMK A01 T02040204  RH  100%=      5-min Rain = 0
KDO1 242213Z 10028G34KT 21/21 A2979 RMK A01 T02050205  RH  100%=      5-min Rain = 0
KDO1 242214Z 10026G32KT 21/21 A2979 RMK A01 T02060207  RH  100%=      5-min Rain = 0
KDO1 242215Z 10026G31KT 21/21 A298 RMK A01 T02070207  RH  100%=      5-min Rain = 0
KDO1 242216Z 10022G29KT 21/21 A298 RMK A01 T02080208  RH  100%=      5-min Rain = 0
KDO1 242217Z 10020KT 21/21 A298 RMK A01 T02090209  RH  100%=      5-min Rain = 0
KDO1 242218Z 10019G25KT 21/21 A2981 RMK A01 T02110211  RH  100%=      5-min Rain = 0
KDO1 242219Z 11022G27KT 21/21 A2982 RMK A01 T02120212  RH  100%=      5-min Rain = 0
KDO1 242220Z 12019KT 21/21 A2983 RMK A01 T02120212  RH  100%=      5-min Rain = 0
KDO1 242221Z 12018KT 21/21 A2983 RMK A01 T02120212  RH  100%=      5-min Rain = 0
KDO1 242222Z 12022KT 21/21 A2982 RMK A01 T02120212  RH  100%=      5-min Rain = 0
KDO1 242223Z 12022G27KT 21/21 A2981 RMK A01 T02110212  RH  100%=      5-min Rain = 0
KDO1 242224Z 12022G27KT 21/21 A2981 RMK A01 T02120212  RH  100%=      5-min Rain = 0
KDO1 242225Z 11019G25KT 21/21 A298 RMK A01 T02120212  RH  100%=      5-min Rain = 0
KDO1 242226Z 11022G27KT 21/21 A298 RMK A01 T02120212  RH  100%=      5-min Rain = 0
KDO1 242227Z 11020G25KT 21/21 A298 RMK A01 T02120212  RH  100%=      5-min Rain = 0
KDO1 242228Z 11020KT 21/21 A2979 RMK A01 T02130213  RH  100%=      5-min Rain = 0
KDO1 242229Z 10018G24KT 21/22 A2978 RMK A01 T02140215  RH  100%=      5-min Rain = 0
KDO1 242230Z 11022G28KT 22/22 A2978 RMK A01 T02150215  RH  100%=      5-min Rain = 0
KDO1 242231Z 11023G29KT 22/22 A2978 RMK A01 T02160216  RH  100%=      5-min Rain = 0
KDO1 242232Z 11021G27KT 22/22 A2978 RMK A01 T02170217  RH  100%=      5-min Rain = 0
KDO1 242233Z 11021KT 22/22 A2978 RMK A01 T02190219  RH  100%=      5-min Rain = 0
KDO1 242234Z 10026G36KT 22/22 A2978 RMK A01 T02210215  RH  096%=      5-min Rain = 0
KDO1 242235Z 11026G33KT 23/21 A2977 RMK A01 T02260205  RH  088%=      5-min Rain = 0
KDO1 242236Z 11020G31KT 23/20 A2977 RMK A01 T02290202  RH  084%=      5-min Rain = 0
KDO1 242237Z 12018KT 23/20 A2977 RMK A01 T02300203  RH  085%=      5-min Rain = 0
KDO1 242238Z 12017G24KT 23/20 A2978 RMK A01 T02290203  RH  085%=      5-min Rain = 0
KDO1 242239Z 11015KT 23/20 A2978 RMK A01 T02290201  RH  084%=      5-min Rain = 0
KDO1 242240Z 13013G19KT 23/20 A2979 RMK A01 T02290199  RH  083%=      5-min Rain = 0
KDO1 242241Z 16015G20KT 23/21 A298 RMK A01 T02300207  RH  087%=      5-min Rain = 0
KDO1 242242Z 20025G38KT 23/21 A2982 RMK A01 T02300210  RH  088%=      5-min Rain = 0
KDO1 242243Z 23026G34KT 23/21 A2983 RMK A01 T02270208  RH  089%=      5-min Rain = 0
KDO1 242244Z 25022G28KT 22/21 A2984 RMK A01 T02210209  RH  093%=      5-min Rain = 0
KDO1 242245Z 24017KT 22/21 A2984 RMK A01 T02180210  RH  095%=      5-min Rain = 0
KDO1 242246Z 24018G24KT 22/21 A2983 RMK A01 T02180207  RH  093%=      5-min Rain = 0
KDO1 242247Z 23019G25KT 22/21 A2983 RMK A01 T02240206  RH  089%=      5-min Rain = 0
KDO1 242248Z 23018G30KT 23/21 A2983 RMK A01 T02280205  RH  087%=      5-min Rain = 0
KDO1 242249Z 21027G36KT 23/21 A2983 RMK A01 T02300205  RH  086%=      5-min Rain = 0
KDO1 242250Z 19017G27KT 23/20 A2983 RMK A01 T02330203  RH  083%=      5-min Rain = 0
KDO1 242251Z 14011G21KT 24/20 A2982 RMK A01 T02360201  RH  080%=      5-min Rain = 0
KDO1 242252Z 18016G27KT 24/20 A2983 RMK A01 T02380202  RH  080%=      5-min Rain = 0
KDO1 242253Z 20011G16KT 24/20 A2983 RMK A01 T02380201  RH  079%=      5-min Rain = 0
KDO1 242254Z 20015KT 24/21 A2982 RMK A01 T02390205  RH  081%=      5-min Rain = 0
KDO1 242255Z 21013G19KT 24/21 A2983 RMK A01 T02390205  RH  081%=      5-min Rain = 0
KDO1 242256Z 18010G20KT 24/21 A2983 RMK A01 T02380206  RH  082%=      5-min Rain = 0
KDO1 242257Z 12005KT 24/21 A2983 RMK A01 T02370207  RH  083%=      5-min Rain = 0
KDO1 242258Z 12007KT 24/21 A2983 RMK A01 T02350207  RH  084%=      5-min Rain = 0
KDO1 242259Z 20005KT 23/21 A2984 RMK A01 T02340205  RH  084%=      5-min Rain = 0
KDO1 242300Z 22010KT 23/21 A2985 RMK A01 T02340205  RH  084%=      5-min Rain = 0
KDO1 242301Z 26011G16KT 23/20 A2985 RMK A01 T02340204  RH  083%=      5-min Rain = 0
KDO1 242302Z 27015KT 23/20 A2986 RMK A01 T02330203  RH  083%=      5-min Rain = 0
KDO1 242303Z 27012G17KT 23/20 A2986 RMK A01 T02330203  RH  083%=      5-min Rain = 0
KDO1 242304Z 27009KT 23/21 A2986 RMK A01 T02320205  RH  085%=      5-min Rain = 0
KDO1 242305Z 26008KT 23/21 A2985 RMK A01 T02280206  RH  087%=      5-min Rain = 0
KDO1 242306Z 26009KT 23/21 A2985 RMK A01 T02250206  RH  089%=      5-min Rain = 0
KDO1 242307Z 29008KT 22/21 A2984 RMK A01 T02240207  RH  090%=      5-min Rain = 0
KDO1 242308Z 26009KT 22/21 A2984 RMK A01 T02230207  RH  091%=      5-min Rain = 0
KDO1 242309Z 24011KT 22/21 A2984 RMK A01 T02240209  RH  091%=      5-min Rain = 0
KDO1 242310Z 24010KT 23/21 A2985 RMK A01 T02270212  RH  091%=      5-min Rain = 0
KDO1 242311Z 27009KT 23/21 A2985 RMK A01 T02280211  RH  090%=      5-min Rain = 0
KDO1 242312Z 27010KT 23/21 A2984 RMK A01 T02280209  RH  089%=      5-min Rain = 0
KDO1 242313Z 27011KT 23/21 A2984 RMK A01 T02250209  RH  090%=      5-min Rain = 0
KDO1 242314Z 28009KT 22/21 A2983 RMK A01 T02230209  RH  091%=      5-min Rain = 0
KDO1 242315Z 28010KT 22/21 A2983 RMK A01 T02220209  RH  092%=      5-min Rain = 0
KDO1 242316Z 28009KT 22/21 A2983 RMK A01 T02220208  RH  092%=      5-min Rain = 0
KDO1 242317Z 28008KT 22/21 A2983 RMK A01 T02220208  RH  092%=      5-min Rain = 0
KDO1 242318Z 28007KT 22/21 A2984 RMK A01 T02220208  RH  092%=      5-min Rain = 0
KDO1 242319Z 28007KT 22/21 A2984 RMK A01 T02220209  RH  092%=      5-min Rain = 0
KDO1 242320Z 28006KT 22/21 A2984 RMK A01 T02210209  RH  092%=      5-min Rain = 0
KDO1 242321Z 27004KT 22/21 A2983 RMK A01 T02210209  RH  093%=      5-min Rain = 0
KDO1 242322Z 30003KT 22/21 A2982 RMK A01 T02200209  RH  093%=      5-min Rain = 0
KDO1 242323Z 31004KT 22/21 A2981 RMK A01 T02200209  RH  093%=      5-min Rain = 0
KDO1 242324Z 31005KT 22/21 A2981 RMK A01 T02200209  RH  093%=      5-min Rain = 0
KDO1 242325Z 30006KT 22/21 A2982 RMK A01 T02200209  RH  093%=      5-min Rain = 0
KDO1 242326Z 30007KT 22/21 A2982 RMK A01 T02200209  RH  093%=      5-min Rain = 0
KDO1 242327Z 29008KT 22/21 A2982 RMK A01 T02200209  RH  093%=      5-min Rain = 0
KDO1 242328Z 30009KT 22/21 A2982 RMK A01 T02190209  RH  094%=      5-min Rain = 0
KDO1 242329Z 30008KT 22/21 A2982 RMK A01 T02190209  RH  094%=      5-min Rain = 0
KDO1 242330Z 31010KT 22/21 A2981 RMK A01 T02180209  RH  095%=      5-min Rain = 0
KDO1 242331Z 31008KT 22/21 A2981 RMK A01 T02170208  RH  095%=      5-min Rain = 0
KDO1 242332Z 31007KT 22/21 A2981 RMK A01 T02160208  RH  095%=      5-min Rain = 0
KDO1 242333Z 29008KT 22/21 A2982 RMK A01 T02160209  RH  096%=      5-min Rain = 0
KDO1 242334Z 28008KT 22/21 A2983 RMK A01 T02160209  RH  096%=      5-min Rain = 0
KDO1 242335Z 26008KT 22/21 A2984 RMK A01 T02160209  RH  096%=      5-min Rain = 0
KDO1 242336Z 26006KT 22/21 A2984 RMK A01 T02160210  RH  096%=      5-min Rain = 0
KDO1 242337Z 28005KT 22/21 A2983 RMK A01 T02150209  RH  096%=      5-min Rain = 0
KDO1 242338Z 31004KT 22/21 A2982 RMK A01 T02150209  RH  096%=      5-min Rain = 0
KDO1 242339Z 30006KT 22/21 A2982 RMK A01 T02150209  RH  097%=      5-min Rain = 0
KDO1 242340Z 27007KT 22/21 A2984 RMK A01 T02150209  RH  096%=      5-min Rain = 0
KDO1 242341Z 26009KT 22/21 A2985 RMK A01 T02150209  RH  096%=      5-min Rain = 0
KDO1 242342Z 27008KT 22/21 A2985 RMK A01 T02150209  RH  096%=      5-min Rain = 0
KDO1 242343Z 29008KT 22/21 A2983 RMK A01 T02150209  RH  097%=      5-min Rain = 0
KDO1 242344Z 30007KT 22/21 A2983 RMK A01 T02150209  RH  096%=      5-min Rain = 0
KDO1 242345Z 28009KT 22/21 A2983 RMK A01 T02150209  RH  096%=      5-min Rain = 0
KDO1 242346Z 27009KT 22/21 A2984 RMK A01 T02160208  RH  095%=      5-min Rain = 0
KDO1 242347Z 27009KT 22/21 A2984 RMK A01 T02160208  RH  095%=      5-min Rain = 0
KDO1 242348Z 26007KT 22/21 A2984 RMK A01 T02160208  RH  095%=      5-min Rain = 0
KDO1 242349Z 25007KT 22/21 A2984 RMK A01 T02160208  RH  095%=      5-min Rain = 0
KDO1 242350Z 25008KT 22/21 A2985 RMK A01 T02160209  RH  095%=      5-min Rain = 0
KDO1 242351Z 24009KT 22/21 A2985 RMK A01 T02170209  RH  095%=      5-min Rain = 0
KDO1 242352Z 25009KT 22/21 A2985 RMK A01 T02170208  RH  095%=      5-min Rain = 0
KDO1 242353Z 25007KT 22/21 A2985 RMK A01 T02180208  RH  094%=      5-min Rain = 0
KDO1 242354Z 25006KT 22/21 A2984 RMK A01 T02180207  RH  094%=      5-min Rain = 0
KDO1 242355Z 25005KT 22/21 A2983 RMK A01 T02190208  RH  093%=      5-min Rain = 0
KDO1 242356Z 20003KT 22/21 A2983 RMK A01 T02190208  RH  093%=      5-min Rain = 0
KDO1 242357Z 15003KT 22/21 A2982 RMK A01 T02190208  RH  093%=      5-min Rain = 0
KDO1 242358Z 12005KT 22/21 A2981 RMK A01 T02190208  RH  094%=      5-min Rain = 0
KDO1 242359Z 11007KT 22/21 A298 RMK A01 T02180209  RH  095%=      5-min Rain = 0
KDO1 250000Z 09007KT 22/21 A2979 RMK A01 T02170209  RH  095%=      5-min Rain = 0
KDO1 250001Z 08007KT 22/21 A2978 RMK A01 T02170210  RH  096%=      5-min Rain = 0
KDO1 250002Z 08008KT 22/21 A2978 RMK A01 T02160210  RH  096%=      5-min Rain = 0
KDO1 250003Z 08007KT 22/21 A2977 RMK A01 T02160211  RH  097%=      5-min Rain = 0
KDO1 250004Z 07006KT 22/21 A2977 RMK A01 T02160211  RH  097%=      5-min Rain = 0
KDO1 250005Z 07009KT 22/21 A2976 RMK A01 T02150211  RH  098%=      5-min Rain = 0
KDO1 250006Z 07007KT 22/21 A2976 RMK A01 T02150212  RH  098%=      5-min Rain = 0
KDO1 250007Z 07005KT 22/21 A2977 RMK A01 T02150212  RH  098%=      5-min Rain = 0
KDO1 250008Z 07005KT 22/21 A2976 RMK A01 T02150212  RH  098%=      5-min Rain = 0
KDO1 250009Z 00001KT 22/21 A2977 RMK A01 T02150212  RH  098%=      5-min Rain = 0
KDO1 250010Z 23003KT 22/21 A2979 RMK A01 T02150212  RH  098%=      5-min Rain = 0
KDO1 250011Z 24011KT 22/21 A2983 RMK A01 T02150212  RH  098%=      5-min Rain = 0
KDO1 250012Z 25020KT 22/21 A2985 RMK A01 T02160213  RH  098%=      5-min Rain = 0
KDO1 250013Z 25020KT 22/21 A2986 RMK A01 T02160213  RH  098%=      5-min Rain = 0
KDO1 250014Z 25018KT 22/21 A2986 RMK A01 T02170214  RH  098%=      5-min Rain = 0
KDO1 250015Z 24016G23KT 22/21 A2986 RMK A01 T02170214  RH  098%=      5-min Rain = 0
KDO1 250016Z 23018KT 22/21 A2986 RMK A01 T02180214  RH  098%=      5-min Rain = 0
KDO1 250017Z 23020G25KT 22/21 A2986 RMK A01 T02190213  RH  096%=      5-min Rain = 0
KDO1 250018Z 23021KT 22/21 A2987 RMK A01 T02210210  RH  093%=      5-min Rain = 0
KDO1 250019Z 22018G23KT 22/21 A2987 RMK A01 T02220209  RH  092%=      5-min Rain = 0
KDO1 250020Z 22017KT 22/21 A2986 RMK A01 T02220205  RH  090%=      5-min Rain = 0
KDO1 250021Z 20013G18KT 22/20 A2984 RMK A01 T02220200  RH  088%=      5-min Rain = 0
KDO1 250022Z 20011KT 22/20 A2982 RMK A01 T02200197  RH  087%=      5-min Rain = 0
KDO1 250023Z 20012KT 22/20 A2982 RMK A01 T02190196  RH  087%=      5-min Rain = 0
KDO1 250024Z 19012KT 22/20 A2981 RMK A01 T02170196  RH  088%=      5-min Rain = 0
KDO1 250025Z 18014KT 22/20 A2981 RMK A01 T02160197  RH  089%=      5-min Rain = 0
KDO1 250026Z 18013KT 22/20 A2982 RMK A01 T02150198  RH  090%=      5-min Rain = 0
KDO1 250027Z 20016KT 21/20 A2982 RMK A01 T02140198  RH  090%=      5-min Rain = 0
KDO1 250028Z 20016KT 21/20 A2983 RMK A01 T02130197  RH  090%=      5-min Rain = 0
KDO1 250029Z 19014KT 21/20 A2982 RMK A01 T02120197  RH  091%=      5-min Rain = 0
KDO1 250030Z 20013KT 21/20 A2982 RMK A01 T02120196  RH  091%=      5-min Rain = 0
KDO1 250031Z 20013KT 21/19 A2982 RMK A01 T02100194  RH  090%=      5-min Rain = 0
KDO1 250032Z 21015KT 21/19 A2983 RMK A01 T02090193  RH  090%=      5-min Rain = 0
KDO1 250033Z 22018KT 21/19 A2985 RMK A01 T02090192  RH  090%=      5-min Rain = 0
KDO1 250034Z 22023KT 21/18 A2986 RMK A01 T02080183  RH  086%=      5-min Rain = 0
KDO1 250035Z 22024KT 21/18 A2988 RMK A01 T02070177  RH  083%=      5-min Rain = 0
KDO1 250036Z 22020G25KT 21/18 A2988 RMK A01 T02060175  RH  082%=      5-min Rain = 0
KDO1 250037Z 22013G19KT 21/18 A2987 RMK A01 T02050175  RH  083%=      5-min Rain = 0
KDO1 250038Z 21008KT 20/17 A2984 RMK A01 T02040174  RH  083%=      5-min Rain = 0
KDO1 250039Z 21015G21KT 20/18 A2986 RMK A01 T02030175  RH  084%=      5-min Rain = 0
KDO1 250040Z 21019G25KT 20/18 A2988 RMK A01 T02030177  RH  085%=      5-min Rain = 0
KDO1 250041Z 21020KT 20/18 A2988 RMK A01 T02020177  RH  086%=      5-min Rain = 0
KDO1 250042Z 20014G20KT 20/18 A2986 RMK A01 T02020176  RH  085%=      5-min Rain = 0
KDO1 250043Z 19010G15KT 20/17 A2984 RMK A01 T02020174  RH  084%=      5-min Rain = 0
KDO1 250044Z 20011KT 20/18 A2984 RMK A01 T02010175  RH  085%=      5-min Rain = 0
KDO1 250045Z 20011KT 20/17 A2984 RMK A01 T02010172  RH  083%=      5-min Rain = 0
KDO1 250046Z 23015G23KT 20/17 A2986 RMK A01 T02010171  RH  083%=      5-min Rain = 0
KDO1 250047Z 23021KT 20/17 A2988 RMK A01 T02000168  RH  082%=      5-min Rain = 0
KDO1 250048Z 23020G25KT 20/17 A2988 RMK A01 T02010166  RH  080%=      5-min Rain = 0
KDO1 250049Z 22014G21KT 20/17 A2988 RMK A01 T02020168  RH  081%=      5-min Rain = 0
KDO1 250050Z 21009KT 20/17 A2985 RMK A01 T02010169  RH  082%=      5-min Rain = 0
KDO1 250051Z 18008KT 20/17 A2984 RMK A01 T02010168  RH  081%=      5-min Rain = 0
KDO1 250052Z 19014KT 20/17 A2985 RMK A01 T02000168  RH  082%=      5-min Rain = 0
KDO1 250053Z 21017KT 20/16 A2987 RMK A01 T01990164  RH  080%=      5-min Rain = 0
KDO1 250054Z 22018G23KT 20/17 A2989 RMK A01 T01990166  RH  081%=      5-min Rain = 0
KDO1 250055Z 22019G25KT 20/17 A299 RMK A01 T01980167  RH  082%=      5-min Rain = 0
KDO1 250056Z 21018G24KT 20/17 A2989 RMK A01 T01970166  RH  082%=      5-min Rain = 0
KDO1 250057Z 20011G16KT 20/17 A2986 RMK A01 T01970165  RH  082%=      5-min Rain = 0
KDO1 250058Z 18010KT 20/17 A2984 RMK A01 T01960165  RH  082%=      5-min Rain = 0
KDO1 250059Z 17012KT 20/16 A2984 RMK A01 T01950163  RH  082%=      5-min Rain = 0
KDO1 250100Z 18017KT 20/16 A2985 RMK A01 T01950164  RH  083%=      5-min Rain = 0
KDO1 250101Z 18019KT 19/17 A2985 RMK A01 T01940165  RH  083%=      5-min Rain = 0
KDO1 250102Z 18016G21KT 19/17 A2986 RMK A01 T01930165  RH  084%=      5-min Rain = 0
KDO1 250103Z 17010KT 19/17 A2986 RMK A01 T01930166  RH  084%=      5-min Rain = 0
KDO1 250104Z 17008KT 19/17 A2986 RMK A01 T01930166  RH  084%=      5-min Rain = 0
KDO1 250105Z 18011G17KT 19/17 A2987 RMK A01 T01920166  RH  085%=      5-min Rain = 0
KDO1 250106Z 19013KT 19/17 A2987 RMK A01 T01920166  RH  085%=      5-min Rain = 0
KDO1 250107Z 18010KT 19/17 A2987 RMK A01 T01910168  RH  086%=      5-min Rain = 0
KDO1 250108Z 15007KT 19/17 A2984 RMK A01 T01900168  RH  087%=      5-min Rain = 0
KDO1 250109Z 13006KT 19/17 A2982 RMK A01 T01900167  RH  087%=      5-min Rain = 0
KDO1 250110Z 18005KT 19/17 A2983 RMK A01 T01890166  RH  087%=      5-min Rain = 0
KDO1 250111Z 22009KT 19/17 A2985 RMK A01 T01890168  RH  088%=      5-min Rain = 0
KDO1 250112Z 24011KT 19/17 A2987 RMK A01 T01880170  RH  089%=      5-min Rain = 0
KDO1 250113Z 25010KT 19/17 A2987 RMK A01 T01870170  RH  089%=      5-min Rain = 0
KDO1 250114Z 24009KT 19/17 A2987 RMK A01 T01870169  RH  089%=      5-min Rain = 0
KDO1 250115Z 22006KT 19/17 A2987 RMK A01 T01870168  RH  089%=      5-min Rain = 0
KDO1 250116Z 20012KT 19/17 A2989 RMK A01 T01870168  RH  089%=      5-min Rain = 0
KDO1 250117Z 21012KT 19/17 A299 RMK A01 T01870169  RH  089%=      5-min Rain = 0
KDO1 250118Z 22008KT 19/17 A2988 RMK A01 T01870167  RH  088%=      5-min Rain = 0
KDO1 250119Z 21007KT 19/17 A2987 RMK A01 T01870167  RH  088%=      5-min Rain = 0
KDO1 250120Z 19011KT 19/17 A2989 RMK A01 T01870167  RH  088%=      5-min Rain = 0
KDO1 250121Z 18011KT 19/17 A2988 RMK A01 T01870168  RH  088%=      5-min Rain = 0
KDO1 250122Z 19010KT 19/17 A2988 RMK A01 T01870167  RH  088%=      5-min Rain = 0
KDO1 250123Z 20014KT 19/17 A2989 RMK A01 T01870166  RH  087%=      5-min Rain = 0
KDO1 250124Z 21018KT 19/17 A2991 RMK A01 T01880166  RH  087%=      5-min Rain = 0
KDO1 250125Z 21019KT 19/17 A2992 RMK A01 T01880167  RH  088%=      5-min Rain = 0
KDO1 250126Z 20015G22KT 19/17 A2991 RMK A01 T01880166  RH  087%=      5-min Rain = 0
KDO1 250127Z 18008KT 19/17 A2989 RMK A01 T01890167  RH  087%=      5-min Rain = 0
KDO1 250128Z 20011KT 19/17 A2989 RMK A01 T01880168  RH  088%=      5-min Rain = 0
KDO1 250129Z 21015KT 19/17 A2991 RMK A01 T01880167  RH  088%=      5-min Rain = 0
KDO1 250130Z 21013KT 19/17 A2992 RMK A01 T01870169  RH  089%=      5-min Rain = 0
KDO1 250131Z 20011KT 19/17 A2992 RMK A01 T01870170  RH  090%=      5-min Rain = 0
KDO1 250132Z 19012KT 19/17 A2991 RMK A01 T01860169  RH  090%=      5-min Rain = 0
KDO1 250133Z 19013KT 19/17 A299 RMK A01 T01860169  RH  090%=      5-min Rain = 0
KDO1 250134Z 20018KT 19/17 A2991 RMK A01 T01850169  RH  090%=      5-min Rain = 0
KDO1 250135Z 20021KT 19/17 A2992 RMK A01 T01850170  RH  091%=      5-min Rain = 0
KDO1 250136Z 19016G21KT 18/17 A2992 RMK A01 T01840170  RH  092%=      5-min Rain = 0
KDO1 250137Z 18016KT 18/17 A299 RMK A01 T01840171  RH  092%=      5-min Rain = 0
KDO1 250138Z 18015KT 18/17 A299 RMK A01 T01830171  RH  093%=      5-min Rain = 0
KDO1 250139Z 18016KT 18/17 A299 RMK A01 T01820171  RH  093%=      5-min Rain = 0
KDO1 250140Z 18013KT 18/17 A299 RMK A01 T01810170  RH  093%=      5-min Rain = 0
KDO1 250141Z 18011KT 18/17 A299 RMK A01 T01810171  RH  094%=      5-min Rain = 0
KDO1 250142Z 18012KT 18/17 A299 RMK A01 T01800172  RH  095%=      5-min Rain = 0
KDO1 250143Z 18012KT 18/17 A2989 RMK A01 T01800172  RH  095%=      5-min Rain = 0
KDO1 250144Z 17011KT 18/17 A2989 RMK A01 T01790172  RH  095%=      5-min Rain = 0
KDO1 250145Z 17010KT 18/17 A2989 RMK A01 T01790172  RH  096%=      5-min Rain = 0
KDO1 250146Z 16012KT 18/17 A2988 RMK A01 T01780172  RH  096%=      5-min Rain = 0
KDO1 250147Z 14010KT 18/17 A2987 RMK A01 T01780172  RH  097%=      5-min Rain = 0
KDO1 250148Z 14011KT 18/17 A2987 RMK A01 T01770172  RH  097%=      5-min Rain = 0
KDO1 250149Z 15009KT 18/17 A2988 RMK A01 T01770173  RH  097%=      5-min Rain = 0
KDO1 250150Z 17009KT 18/17 A299 RMK A01 T01770173  RH  098%=      5-min Rain = 0
KDO1 250151Z 17007KT 18/17 A299 RMK A01 T01770174  RH  098%=      5-min Rain = 0
KDO1 250152Z 17008KT 18/17 A299 RMK A01 T01770173  RH  098%=      5-min Rain = 0
KDO1 250153Z 19010KT 18/17 A2992 RMK A01 T01770173  RH  098%=      5-min Rain = 0
KDO1 250154Z 19010KT 18/17 A2993 RMK A01 T01770174  RH  098%=      5-min Rain = 0
KDO1 250155Z 20009KT 18/17 A2993 RMK A01 T01770174  RH  098%=      5-min Rain = 0
KDO1 250156Z 19012KT 18/17 A2993 RMK A01 T01780174  RH  098%=      5-min Rain = 0
KDO1 250157Z 17011KT 18/17 A2991 RMK A01 T01780173  RH  097%=      5-min Rain = 0
KDO1 250158Z 16011KT 18/17 A299 RMK A01 T01780173  RH  097%=      5-min Rain = 0
KDO1 250159Z 15012KT 18/17 A299 RMK A01 T01770174  RH  098%=      5-min Rain = 0
KDO1 250200Z 15013KT 18/17 A299 RMK A01 T01780174  RH  098%=      5-min Rain = 0
KDO1 250201Z 16014KT 18/17 A2989 RMK A01 T01770174  RH  098%=      5-min Rain = 0
KDO1 250202Z 15011G16KT 18/18 A2989 RMK A01 T01770175  RH  098%=      5-min Rain = 0
KDO1 250203Z 15009KT 18/18 A2989 RMK A01 T01770175  RH  099%=      5-min Rain = 0
KDO1 250204Z 14011KT 18/18 A2988 RMK A01 T01770176  RH  099%=      5-min Rain = 0
KDO1 250205Z 13011KT 18/18 A2987 RMK A01 T01770175  RH  099%=      5-min Rain = 0
KDO1 250206Z 13010KT 18/18 A2987 RMK A01 T01760175  RH  099%=      5-min Rain = 0
KDO1 250207Z 14010KT 18/18 A2987 RMK A01 T01760175  RH  100%=      5-min Rain = 0
KDO1 250208Z 14009KT 18/18 A2987 RMK A01 T01760176  RH  100%=      5-min Rain = 0
KDO1 250209Z 13012KT 18/18 A2986 RMK A01 T01760176  RH  100%=      5-min Rain = 0
KDO1 250210Z 11008KT 18/18 A2985 RMK A01 T01750175  RH  100%=      5-min Rain = 0
KDO1 250211Z 12007KT 18/18 A2985 RMK A01 T01750175  RH  100%=      5-min Rain = 0
KDO1 250212Z 10007KT 18/18 A2985 RMK A01 T01750175  RH  100%=      5-min Rain = 0
KDO1 250213Z 09007KT 17/17 A2984 RMK A01 T01740174  RH  100%=      5-min Rain = 0
KDO1 250214Z 08005KT 17/17 A2984 RMK A01 T01740174  RH  100%=      5-min Rain = 0
KDO1 250215Z 15001KT 17/17 A2986 RMK A01 T01740174  RH  100%=      5-min Rain = 0
KDO1 250216Z 24003KT 17/17 A2988 RMK A01 T01740174  RH  100%=      5-min Rain = 0
KDO1 250217Z 26008KT 17/17 A2989 RMK A01 T01740174  RH  100%=      5-min Rain = 0
KDO1 250218Z 26008KT 17/17 A2989 RMK A01 T01740174  RH  100%=      5-min Rain = 0
KDO1 250219Z 26006KT 18/18 A2988 RMK A01 T01750175  RH  100%=      5-min Rain = 0
KDO1 250220Z 26007KT 18/18 A2989 RMK A01 T01750175  RH  100%=      5-min Rain = 0
KDO1 250221Z 25008KT 18/18 A2989 RMK A01 T01750175  RH  100%=      5-min Rain = 0
KDO1 250222Z 28006KT 18/18 A2988 RMK A01 T01760176  RH  100%=      5-min Rain = 0
KDO1 250223Z 30006KT 18/18 A2987 RMK A01 T01760176  RH  100%=      5-min Rain = 0
KDO1 250224Z 29007KT 18/18 A2988 RMK A01 T01760176  RH  100%=      5-min Rain = 0
KDO1 250225Z 30008KT 18/18 A2989 RMK A01 T01770177  RH  100%=      5-min Rain = 0
KDO1 250226Z 30005KT 18/18 A2988 RMK A01 T01760176  RH  100%=      5-min Rain = 0
KDO1 250227Z 31003KT 18/18 A2988 RMK A01 T01760176  RH  100%=      5-min Rain = 0
KDO1 250228Z 28003KT 18/18 A2988 RMK A01 T01760176  RH  100%=      5-min Rain = 0
KDO1 250229Z 29002KT 18/18 A2988 RMK A01 T01760177  RH  100%=      5-min Rain = 0
KDO1 250230Z 21003KT 18/18 A2988 RMK A01 T01760177  RH  100%=      5-min Rain = 0
KDO1 250231Z 18005KT 18/18 A2988 RMK A01 T01760176  RH  100%=      5-min Rain = 0
KDO1 250232Z 18005KT 18/18 A2988 RMK A01 T01770177  RH  100%=      5-min Rain = 0
KDO1 250233Z 18003KT 18/18 A2987 RMK A01 T01770177  RH  100%=      5-min Rain = 0
KDO1 250234Z 17001KT 18/18 A2987 RMK A01 T01770177  RH  100%=      5-min Rain = 0
KDO1 250235Z 13001KT 18/18 A2987 RMK A01 T01770177  RH  100%=      5-min Rain = 0
KDO1 250236Z 18002KT 18/18 A2988 RMK A01 T01770177  RH  100%=      5-min Rain = 0
KDO1 250237Z 24004KT 18/18 A2988 RMK A01 T01770177  RH  100%=      5-min Rain = 0
KDO1 250238Z 29005KT 18/18 A2988 RMK A01 T01770177  RH  100%=      5-min Rain = 0
KDO1 250239Z 29006KT 18/18 A2988 RMK A01 T01770177  RH  100%=      5-min Rain = 0
KDO1 250240Z 29006KT 18/18 A2988 RMK A01 T01770177  RH  100%=      5-min Rain = 0
KDO1 250241Z 28006KT 18/18 A2988 RMK A01 T01770177  RH  100%=      5-min Rain = 0
KDO1 250242Z 27004KT 18/18 A2988 RMK A01 T01770177  RH  100%=      5-min Rain = 0
KDO1 250243Z 25004KT 18/18 A2989 RMK A01 T01770177  RH  100%=      5-min Rain = 0
KDO1 250244Z 24006KT 18/18 A2989 RMK A01 T01770177  RH  100%=      5-min Rain = 0
KDO1 250245Z 22008KT 18/18 A2991 RMK A01 T01770177  RH  100%=      5-min Rain = 0
KDO1 250246Z 21010KT 18/18 A2991 RMK A01 T01780178  RH  100%=      5-min Rain = 0
KDO1 250247Z 20009KT 18/18 A299 RMK A01 T01780178  RH  100%=      5-min Rain = 0
KDO1 250248Z 20007KT 18/18 A299 RMK A01 T01800177  RH  099%=      5-min Rain = 0
KDO1 250249Z 20010KT 18/18 A299 RMK A01 T01800176  RH  097%=      5-min Rain = 0
KDO1 250250Z 20013KT 18/18 A2991 RMK A01 T01810176  RH  097%=      5-min Rain = 0
KDO1 250251Z 20013KT 18/18 A2992 RMK A01 T01820177  RH  097%=      5-min Rain = 0
KDO1 250252Z 19010KT 18/18 A2991 RMK A01 T01840178  RH  096%=      5-min Rain = 0
KDO1 250253Z 20009KT 18/18 A2991 RMK A01 T01840177  RH  096%=      5-min Rain = 0
KDO1 250254Z 20009KT 18/18 A2991 RMK A01 T01840177  RH  096%=      5-min Rain = 0
KDO1 250255Z 19013KT 18/18 A2991 RMK A01 T01830178  RH  096%=      5-min Rain = 0
KDO1 250256Z 21013KT 18/18 A2992 RMK A01 T01830177  RH  096%=      5-min Rain = 0
KDO1 250257Z 20013KT 18/18 A2992 RMK A01 T01840177  RH  096%=      5-min Rain = 0
KDO1 250258Z 21010KT 18/18 A2992 RMK A01 T01840177  RH  095%=      5-min Rain = 0
KDO1 250259Z 20011KT 19/18 A2991 RMK A01 T01850177  RH  095%=      5-min Rain = 0
KDO1 250300Z 20009KT 18/18 A2991 RMK A01 T01840176  RH  095%=      5-min Rain = 0
KDO1 250301Z 20011KT 19/18 A2991 RMK A01 T01850177  RH  095%=      5-min Rain = 0
KDO1 250302Z 19010KT 18/18 A2991 RMK A01 T01840176  RH  095%=      5-min Rain = 0
KDO1 250303Z 19009KT 19/18 A2991 RMK A01 T01850177  RH  095%=      5-min Rain = 0
KDO1 250304Z 19011KT 18/18 A2991 RMK A01 T01840177  RH  096%=      5-min Rain = 0
KDO1 250305Z 19011KT 18/18 A2991 RMK A01 T01840177  RH  096%=      5-min Rain = 0
KDO1 250306Z 20011KT 19/18 A2991 RMK A01 T01850177  RH  095%=      5-min Rain = 0
KDO1 250307Z 19011KT 19/18 A299 RMK A01 T01850176  RH  094%=      5-min Rain = 0
KDO1 250308Z 19011KT 19/18 A2991 RMK A01 T01860176  RH  094%=      5-min Rain = 0
KDO1 250309Z 18012KT 19/18 A2991 RMK A01 T01860175  RH  093%=      5-min Rain = 0
KDO1 250310Z 19013KT 19/18 A2992 RMK A01 T01860176  RH  094%=      5-min Rain = 0
KDO1 250311Z 20013KT 19/18 A2993 RMK A01 T01860176  RH  094%=      5-min Rain = 0
KDO1 250312Z 18013KT 19/18 A2993 RMK A01 T01860177  RH  094%=      5-min Rain = 0
KDO1 250313Z 20011KT 19/18 A2993 RMK A01 T01860177  RH  094%=      5-min Rain = 0
KDO1 250314Z 21009KT 19/18 A2992 RMK A01 T01860177  RH  094%=      5-min Rain = 0
KDO1 250315Z 21007KT 19/18 A2991 RMK A01 T01850177  RH  095%=      5-min Rain = 0
KDO1 250316Z 20008KT 19/18 A2991 RMK A01 T01850176  RH  095%=      5-min Rain = 0
KDO1 250317Z 18010KT 18/18 A2992 RMK A01 T01840177  RH  095%=      5-min Rain = 0
KDO1 250318Z 19009KT 18/18 A2992 RMK A01 T01840178  RH  096%=      5-min Rain = 0
KDO1 250319Z 19008KT 18/18 A2993 RMK A01 T01840178  RH  097%=      5-min Rain = 0
KDO1 250320Z 19012KT 18/18 A2993 RMK A01 T01830178  RH  097%=      5-min Rain = 0
KDO1 250321Z 19009KT 18/18 A2993 RMK A01 T01830178  RH  097%=      5-min Rain = 0
KDO1 250322Z 19010KT 18/18 A2993 RMK A01 T01820178  RH  097%=      5-min Rain = 0
KDO1 250323Z 18010KT 18/18 A2992 RMK A01 T01820178  RH  097%=      5-min Rain = 0
KDO1 250324Z 19009KT 18/18 A2992 RMK A01 T01820177  RH  097%=      5-min Rain = 0
KDO1 250325Z 19008KT 18/18 A2992 RMK A01 T01820178  RH  097%=      5-min Rain = 0
KDO1 250326Z 19007KT 18/18 A2992 RMK A01 T01820178  RH  098%=      5-min Rain = 0
KDO1 250327Z 19007KT 18/18 A2992 RMK A01 T01810178  RH  098%=      5-min Rain = 0
KDO1 250328Z 19008KT 18/18 A2992 RMK A01 T01810178  RH  098%=      5-min Rain = 0
KDO1 250329Z 19009KT 18/18 A2992 RMK A01 T01800177  RH  098%=      5-min Rain = 0
KDO1 250330Z 19009KT 18/17 A2992 RMK A01 T01800174  RH  096%=      5-min Rain = 0
KDO1 250331Z 20008KT 18/17 A2992 RMK A01 T01810173  RH  095%=      5-min Rain = 0
KDO1 250332Z 20008KT 18/17 A2992 RMK A01 T01810174  RH  096%=      5-min Rain = 0
KDO1 250333Z 20009KT 18/18 A2992 RMK A01 T01810175  RH  097%=      5-min Rain = 0
KDO1 250334Z 19009KT 18/18 A2992 RMK A01 T01800175  RH  097%=      5-min Rain = 0
KDO1 250335Z 19007KT 18/17 A2992 RMK A01 T01800174  RH  096%=      5-min Rain = 0
KDO1 250336Z 19007KT 18/17 A2992 RMK A01 T01800174  RH  096%=      5-min Rain = 0
KDO1 250337Z 19008KT 18/17 A2993 RMK A01 T01800174  RH  097%=      5-min Rain = 0
KDO1 250338Z 19008KT 18/17 A2993 RMK A01 T01790173  RH  096%=      5-min Rain = 0
KDO1 250339Z 18007KT 18/17 A2993 RMK A01 T01790171  RH  095%=      5-min Rain = 0
KDO1 250340Z 19006KT 18/17 A2993 RMK A01 T01790171  RH  095%=      5-min Rain = 0
KDO1 250341Z 19006KT 18/17 A2992 RMK A01 T01790171  RH  095%=      5-min Rain = 0
KDO1 250342Z 19006KT 18/17 A2992 RMK A01 T01790171  RH  095%=      5-min Rain = 0
KDO1 250343Z 18009KT 18/17 A2993 RMK A01 T01790170  RH  095%=      5-min Rain = 0
KDO1 250344Z 17009KT 18/17 A2993 RMK A01 T01790170  RH  094%=      5-min Rain = 0
KDO1 250345Z 18010KT 18/17 A2994 RMK A01 T01790170  RH  094%=      5-min Rain = 0
KDO1 250346Z 18010KT 18/17 A2994 RMK A01 T01790169  RH  094%=      5-min Rain = 0
KDO1 250347Z 18012KT 18/17 A2993 RMK A01 T01790168  RH  093%=      5-min Rain = 0
KDO1 250348Z 18008KT 18/17 A2993 RMK A01 T01790166  RH  092%=      5-min Rain = 0
KDO1 250349Z 18010KT 18/17 A2993 RMK A01 T01790166  RH  092%=      5-min Rain = 0
KDO1 250350Z 19009KT 18/17 A2994 RMK A01 T01790165  RH  092%=      5-min Rain = 0
KDO1 250351Z 19009KT 18/17 A2994 RMK A01 T01790166  RH  092%=      5-min Rain = 0
KDO1 250352Z 19008KT 18/17 A2994 RMK A01 T01790166  RH  092%=      5-min Rain = 0
KDO1 250353Z 19010KT 18/17 A2994 RMK A01 T01790166  RH  092%=      5-min Rain = 0
KDO1 250354Z 19010KT 18/17 A2994 RMK A01 T01790166  RH  092%=      5-min Rain = 0
KDO1 250355Z 18007KT 18/17 A2994 RMK A01 T01790165  RH  092%=      5-min Rain = 0
KDO1 250356Z 19009KT 18/17 A2994 RMK A01 T01790165  RH  092%=      5-min Rain = 0
KDO1 250357Z 18007KT 18/17 A2995 RMK A01 T01790165  RH  092%=      5-min Rain = 0
KDO1 250358Z 19009KT 18/17 A2995 RMK A01 T01790166  RH  092%=      5-min Rain = 0
KDO1 250359Z 19010KT 18/17 A2996 RMK A01 T01790166  RH  092%=      5-min Rain = 0
KDO1 250400Z 19010KT 18/17 A2997 RMK A01 T01780167  RH  093%=      5-min Rain = 0
KDO1 250401Z 19012KT 18/17 A2998 RMK A01 T01780167  RH  093%=      5-min Rain = 0
KDO1 250402Z 19011KT 18/17 A2998 RMK A01 T01780167  RH  094%=      5-min Rain = 0
KDO1 250403Z 20011KT 18/17 A2998 RMK A01 T01780168  RH  094%=      5-min Rain = 0
KDO1 250404Z 20011KT 18/17 A2997 RMK A01 T01780167  RH  094%=      5-min Rain = 0
KDO1 250405Z 19009KT 18/17 A2997 RMK A01 T01780167  RH  093%=      5-min Rain = 0
KDO1 250406Z 18010KT 18/17 A2998 RMK A01 T01780167  RH  093%=      5-min Rain = 0
KDO1 250407Z 18010KT 18/17 A2998 RMK A01 T01770167  RH  094%=      5-min Rain = 0
KDO1 250408Z 17009KT 18/17 A2997 RMK A01 T01770168  RH  094%=      5-min Rain = 0
KDO1 250409Z 18008KT 18/17 A2996 RMK A01 T01770168  RH  094%=      5-min Rain = 0
KDO1 250410Z 17005KT 18/17 A2996 RMK A01 T01770167  RH  094%=      5-min Rain = 0
KDO1 250411Z 18006KT 18/17 A2996 RMK A01 T01760167  RH  094%=      5-min Rain = 0
KDO1 250412Z 18007KT 18/17 A2996 RMK A01 T01760168  RH  095%=      5-min Rain = 0
KDO1 250413Z 19007KT 18/17 A2996 RMK A01 T01760167  RH  095%=      5-min Rain = 0
KDO1 250414Z 18007KT 18/17 A2996 RMK A01 T01760168  RH  095%=      5-min Rain = 0
KDO1 250415Z 18007KT 18/17 A2997 RMK A01 T01760168  RH  095%=      5-min Rain = 0
KDO1 250416Z 18006KT 18/17 A2997 RMK A01 T01750168  RH  095%=      5-min Rain = 0
KDO1 250417Z 19007KT 18/17 A2997 RMK A01 T01750168  RH  096%=      5-min Rain = 0
KDO1 250418Z 19009KT 18/17 A2997 RMK A01 T01750168  RH  096%=      5-min Rain = 0
KDO1 250419Z 20008KT 18/17 A2997 RMK A01 T01750168  RH  096%=      5-min Rain = 0
KDO1 250420Z 20008KT 18/17 A2998 RMK A01 T01750168  RH  096%=      5-min Rain = 0
KDO1 250421Z 20007KT 18/17 A2998 RMK A01 T01750168  RH  096%=      5-min Rain = 0
KDO1 250422Z 20007KT 18/17 A2998 RMK A01 T01750168  RH  096%=      5-min Rain = 0
KDO1 250423Z 20007KT 18/17 A2997 RMK A01 T01750168  RH  096%=      5-min Rain = 0
KDO1 250424Z 20007KT 18/17 A2998 RMK A01 T01750168  RH  096%=      5-min Rain = 0
KDO1 250425Z 21006KT 18/17 A2998 RMK A01 T01760168  RH  095%=      5-min Rain = 0
KDO1 250426Z 20007KT 18/17 A2998 RMK A01 T01750168  RH  096%=      5-min Rain = 0
KDO1 250427Z 20007KT 18/17 A2998 RMK A01 T01760169  RH  096%=      5-min Rain = 0
KDO1 250428Z 20007KT 18/17 A2998 RMK A01 T01760169  RH  096%=      5-min Rain = 0
KDO1 250429Z 20009KT 18/17 A2998 RMK A01 T01750169  RH  096%=      5-min Rain = 0
KDO1 250430Z 20008KT 18/17 A2998 RMK A01 T01750169  RH  096%=      5-min Rain = 0
KDO1 250431Z 20008KT 18/17 A2998 RMK A01 T01760169  RH  096%=      5-min Rain = 0
KDO1 250432Z 20007KT 18/17 A2998 RMK A01 T01760169  RH  096%=      5-min Rain = 0
KDO1 250433Z 19007KT 18/17 A2998 RMK A01 T01760169  RH  096%=      5-min Rain = 0
KDO1 250434Z 19006KT 18/17 A2998 RMK A01 T01760169  RH  096%=      5-min Rain = 0
KDO1 250435Z 19007KT 18/17 A2998 RMK A01 T01760170  RH  096%=      5-min Rain = 0
KDO1 250436Z 19008KT 18/17 A2998 RMK A01 T01750170  RH  096%=      5-min Rain = 0
KDO1 250437Z 19009KT 18/17 A2999 RMK A01 T01760170  RH  097%=      5-min Rain = 0
KDO1 250438Z 19007KT 18/17 A2999 RMK A01 T01760170  RH  097%=      5-min Rain = 0
KDO1 250439Z 19007KT 18/17 A2998 RMK A01 T01750170  RH  096%=      5-min Rain = 0
KDO1 250440Z 19007KT 18/17 A2998 RMK A01 T01750170  RH  097%=      5-min Rain = 0
KDO1 250441Z 18006KT 18/17 A2998 RMK A01 T01750170  RH  097%=      5-min Rain = 0
KDO1 250442Z 18006KT 18/17 A2998 RMK A01 T01750170  RH  097%=      5-min Rain = 0
KDO1 250443Z 18007KT 18/17 A2998 RMK A01 T01760170  RH  097%=      5-min Rain = 0
KDO1 250444Z 18006KT 18/17 A2998 RMK A01 T01750170  RH  097%=      5-min Rain = 0
KDO1 250445Z 20006KT 18/17 A2998 RMK A01 T01750171  RH  097%=      5-min Rain = 0
KDO1 250446Z 20006KT 18/17 A2998 RMK A01 T01750171  RH  097%=      5-min Rain = 0
KDO1 250447Z 20006KT 18/17 A2998 RMK A01 T01750171  RH  097%=      5-min Rain = 0
KDO1 250448Z 21006KT 18/17 A2998 RMK A01 T01750171  RH  098%=      5-min Rain = 0
KDO1 250449Z 21006KT 18/17 A2998 RMK A01 T01750171  RH  098%=      5-min Rain = 0
KDO1 250450Z 21005KT 18/17 A2998 RMK A01 T01750171  RH  098%=      5-min Rain = 0
KDO1 250451Z 20005KT 17/17 A2998 RMK A01 T01740172  RH  098%=      5-min Rain = 0
KDO1 250452Z 19004KT 17/17 A2998 RMK A01 T01740172  RH  098%=      5-min Rain = 0
KDO1 250453Z 19004KT 17/17 A2998 RMK A01 T01740172  RH  099%=      5-min Rain = 0
KDO1 250454Z 20004KT 17/17 A2998 RMK A01 T01740172  RH  099%=      5-min Rain = 0
KDO1 250455Z 20004KT 17/17 A2998 RMK A01 T01740173  RH  099%=      5-min Rain = 0
KDO1 250456Z 18004KT 17/17 A2998 RMK A01 T01730172  RH  099%=      5-min Rain = 0
KDO1 250457Z 18004KT 17/17 A2998 RMK A01 T01730173  RH  100%=      5-min Rain = 0
KDO1 250458Z 18004KT 17/17 A2998 RMK A01 T01730173  RH  100%=      5-min Rain = 0
KDO1 250459Z 19004KT 17/17 A2998 RMK A01 T01730173  RH  100%=      5-min Rain = 0

Page generated in 0.0867 seconds.